BHS881 MYNN-KBGR
Flight info
| Callsign | BHS881 |
|---|---|
| Flight time | 3h 50m |
| Altitude | 25000 |
| Route | FREDY2 JEDIK DCT OMALY G437 MAPYL/M044F230 DCT ZZTOP/N0276F230 DCT LINND DCT BGR |
| Aircraft | DH8C/M-SDFGR/S |
Departure
| Time | 2026-04-24 21:26 |
|---|---|
| Airport | Lynden Pindling International Airport (MYNN) |
Arrival
| Time | 2026-04-25 01:16 |
|---|---|
| Airport | Bangor International Airport (KBGR) |
| Time | Latitude | Longitude | Altitude | Speed | Heading |
|---|---|---|---|---|---|
| 2026-04-24 21:07 | 25.05141 | -77.46935 | 25 ft | 0 kts | 203° |
| 2026-04-24 21:19 | 25.05138 | -77.46937 | 25 ft | 2 kts | 217° |
| 2026-04-24 21:19 | 25.05156 | -77.46959 | 25 ft | 7 kts | 329° |
| 2026-04-24 21:19 | 25.05141 | -77.47014 | 25 ft | 9 kts | 221° |
| 2026-04-24 21:19 | 25.05081 | -77.47072 | 26 ft | 13 kts | 221° |
| 2026-04-24 21:20 | 25.05112 | -77.47233 | 25 ft | 15 kts | 314° |
| 2026-04-24 21:20 | 25.05180 | -77.47308 | 25 ft | 12 kts | 315° |
| 2026-04-24 21:20 | 25.05219 | -77.47385 | 25 ft | 11 kts | 273° |
| 2026-04-24 21:21 | 25.05216 | -77.47430 | 25 ft | 0 kts | 259° |
| 2026-04-24 21:23 | 25.05213 | -77.47446 | 25 ft | 5 kts | 258° |
| 2026-04-24 21:24 | 25.05191 | -77.47507 | 25 ft | 11 kts | 238° |
| 2026-04-24 21:24 | 25.05148 | -77.47531 | 25 ft | 6 kts | 135° |
| 2026-04-24 21:24 | 25.05138 | -77.47520 | 24 ft | 0 kts | 135° |
| 2026-04-24 21:25 | 25.05094 | -77.47472 | 25 ft | 35 kts | 135° |
| 2026-04-24 21:25 | 25.04704 | -77.47039 | 27 ft | 115 kts | 136° |
| 2026-04-24 21:25 | 25.04031 | -77.46296 | 79 ft | 158 kts | 137° |
| 2026-04-24 21:25 | 25.03191 | -77.45373 | 374 ft | 174 kts | 137° |
| 2026-04-24 21:26 | 25.02367 | -77.44483 | 1183 ft | 167 kts | 137° |
| 2026-04-24 21:26 | 25.01542 | -77.43596 | 1926 ft | 166 kts | 138° |
| 2026-04-24 21:26 | 25.00772 | -77.42677 | 2659 ft | 167 kts | 129° |
| 2026-04-24 21:26 | 25.00516 | -77.41451 | 3383 ft | 176 kts | 83° |
| 2026-04-24 21:27 | 25.01152 | -77.40353 | 4200 ft | 179 kts | 43° |
| 2026-04-24 21:27 | 25.02078 | -77.39407 | 4890 ft | 179 kts | 49° |
| 2026-04-24 21:27 | 25.02842 | -77.38394 | 5529 ft | 175 kts | 54° |
| 2026-04-24 21:27 | 25.03328 | -77.37675 | 5982 ft | 175 kts | 56° |
| 2026-04-24 21:28 | 25.04281 | -77.36185 | 6670 ft | 190 kts | 56° |
| 2026-04-24 21:28 | 25.05073 | -77.34928 | 7141 ft | 203 kts | 56° |
| 2026-04-24 21:28 | 25.05897 | -77.33621 | 7593 ft | 215 kts | 56° |
| 2026-04-24 21:28 | 25.06768 | -77.32236 | 8042 ft | 225 kts | 56° |
| 2026-04-24 21:29 | 25.07676 | -77.30794 | 8486 ft | 234 kts | 56° |
| 2026-04-24 21:29 | 25.08614 | -77.29302 | 8925 ft | 241 kts | 55° |
| 2026-04-24 21:29 | 25.09581 | -77.27767 | 9361 ft | 247 kts | 55° |
| 2026-04-24 21:29 | 25.10573 | -77.26191 | 9796 ft | 252 kts | 55° |
| 2026-04-24 21:30 | 25.11583 | -77.24590 | 10228 ft | 257 kts | 54° |
| 2026-04-24 21:30 | 25.12703 | -77.22989 | 10666 ft | 261 kts | 51° |
| 2026-04-24 21:30 | 25.13835 | -77.21423 | 11094 ft | 264 kts | 51° |
| 2026-04-24 21:30 | 25.15151 | -77.20005 | 11472 ft | 267 kts | 29° |
| 2026-04-24 21:31 | 25.16832 | -77.19151 | 11923 ft | 267 kts | 24° |
| 2026-04-24 21:31 | 25.18540 | -77.18349 | 12346 ft | 269 kts | 20° |
| 2026-04-24 21:31 | 25.20298 | -77.17619 | 12773 ft | 271 kts | 19° |
| 2026-04-24 21:31 | 25.22069 | -77.16888 | 13199 ft | 273 kts | 19° |
| 2026-04-24 21:32 | 25.23857 | -77.16148 | 13626 ft | 274 kts | 19° |
| 2026-04-24 21:32 | 25.25628 | -77.15414 | 14047 ft | 276 kts | 19° |
| 2026-04-24 21:32 | 25.27432 | -77.14666 | 14473 ft | 278 kts | 19° |
| 2026-04-24 21:32 | 25.29250 | -77.13911 | 14900 ft | 279 kts | 19° |
| 2026-04-24 21:33 | 25.31049 | -77.13165 | 15319 ft | 281 kts | 18° |
| 2026-04-24 21:33 | 25.32265 | -77.12661 | 15602 ft | 282 kts | 18° |
| 2026-04-24 21:33 | 25.34724 | -77.11640 | 16170 ft | 284 kts | 18° |
| 2026-04-24 21:33 | 25.36552 | -77.10881 | 16590 ft | 285 kts | 18° |
| 2026-04-24 21:34 | 25.38425 | -77.10103 | 17018 ft | 286 kts | 18° |
| 2026-04-24 21:34 | 25.40269 | -77.09335 | 17437 ft | 288 kts | 18° |
| 2026-04-24 21:34 | 25.42154 | -77.08548 | 17864 ft | 289 kts | 18° |
| 2026-04-24 21:34 | 25.44045 | -77.07761 | 18290 ft | 291 kts | 18° |
| 2026-04-24 21:35 | 25.45917 | -77.06982 | 18709 ft | 292 kts | 18° |
| 2026-04-24 21:35 | 25.47837 | -77.06183 | 19137 ft | 293 kts | 18° |
| 2026-04-24 21:35 | 25.49744 | -77.05389 | 19561 ft | 295 kts | 18° |
| 2026-04-24 21:35 | 25.51646 | -77.04597 | 19982 ft | 296 kts | 17° |
| 2026-04-24 21:36 | 25.53585 | -77.03790 | 20409 ft | 298 kts | 17° |
| 2026-04-24 21:36 | 25.55519 | -77.02984 | 20832 ft | 299 kts | 17° |
| 2026-04-24 21:36 | 25.57464 | -77.02174 | 21254 ft | 300 kts | 17° |
| 2026-04-24 21:36 | 25.59416 | -77.01360 | 21676 ft | 301 kts | 17° |
| 2026-04-24 21:37 | 25.61362 | -77.00549 | 22097 ft | 302 kts | 17° |
| 2026-04-24 21:37 | 25.63334 | -76.99725 | 22522 ft | 302 kts | 17° |
| 2026-04-24 21:37 | 25.65278 | -76.98914 | 22939 ft | 302 kts | 17° |
| 2026-04-24 21:37 | 25.67247 | -76.98092 | 23362 ft | 302 kts | 17° |
| 2026-04-24 21:38 | 25.69209 | -76.97272 | 23783 ft | 302 kts | 17° |
| 2026-04-24 21:38 | 25.71163 | -76.96457 | 24202 ft | 301 kts | 17° |
| 2026-04-24 21:38 | 25.73132 | -76.95634 | 24625 ft | 301 kts | 16° |
| 2026-04-24 21:38 | 25.75082 | -76.94819 | 24967 ft | 303 kts | 16° |
| 2026-04-24 21:39 | 25.77088 | -76.93984 | 24989 ft | 316 kts | 17° |
| 2026-04-24 21:39 | 25.79187 | -76.93107 | 24993 ft | 323 kts | 17° |
| 2026-04-24 21:39 | 25.81275 | -76.92231 | 24986 ft | 328 kts | 17° |
| 2026-04-24 21:39 | 25.83431 | -76.91328 | 24992 ft | 336 kts | 17° |
| 2026-04-24 21:40 | 25.85623 | -76.90410 | 24990 ft | 342 kts | 17° |
| 2026-04-24 21:40 | 25.87878 | -76.89465 | 24989 ft | 347 kts | 17° |
| 2026-04-24 21:40 | 25.90151 | -76.88512 | 24988 ft | 352 kts | 17° |
| 2026-04-24 21:40 | 25.92453 | -76.87546 | 24987 ft | 355 kts | 17° |
| 2026-04-24 21:41 | 25.94759 | -76.86578 | 24986 ft | 358 kts | 17° |
| 2026-04-24 21:41 | 25.97077 | -76.85604 | 24985 ft | 360 kts | 17° |
| 2026-04-24 21:41 | 25.99427 | -76.84617 | 24985 ft | 362 kts | 17° |
| 2026-04-24 21:41 | 26.01797 | -76.83621 | 24985 ft | 363 kts | 17° |
| 2026-04-24 21:42 | 26.04167 | -76.82624 | 24985 ft | 365 kts | 17° |
| 2026-04-24 21:42 | 26.06520 | -76.81634 | 24985 ft | 366 kts | 17° |
| 2026-04-24 21:42 | 26.08897 | -76.80634 | 24985 ft | 366 kts | 18° |
| 2026-04-24 21:42 | 26.11300 | -76.79623 | 24982 ft | 367 kts | 18° |
| 2026-04-24 21:43 | 26.13659 | -76.78629 | 24982 ft | 367 kts | 18° |
| 2026-04-24 21:43 | 26.16048 | -76.77622 | 24982 ft | 368 kts | 18° |
| 2026-04-24 21:43 | 26.18450 | -76.76610 | 24982 ft | 368 kts | 18° |
| 2026-04-24 21:43 | 26.20817 | -76.75612 | 24982 ft | 368 kts | 18° |
| 2026-04-24 21:44 | 26.23205 | -76.74604 | 24982 ft | 368 kts | 18° |
| 2026-04-24 21:44 | 26.25616 | -76.73587 | 24982 ft | 368 kts | 18° |
| 2026-04-24 21:44 | 26.27984 | -76.72588 | 24982 ft | 369 kts | 18° |
| 2026-04-24 21:44 | 26.30387 | -76.71572 | 24982 ft | 369 kts | 18° |
| 2026-04-24 21:45 | 26.32793 | -76.70556 | 24982 ft | 369 kts | 18° |
| 2026-04-24 21:45 | 26.35162 | -76.69553 | 24982 ft | 369 kts | 18° |
| 2026-04-24 21:45 | 26.37557 | -76.68541 | 24983 ft | 369 kts | 18° |
| 2026-04-24 21:45 | 26.39972 | -76.67519 | 24983 ft | 369 kts | 18° |
| 2026-04-24 21:46 | 26.42368 | -76.66505 | 24983 ft | 369 kts | 18° |
| 2026-04-24 21:46 | 26.44750 | -76.65496 | 24983 ft | 369 kts | 18° |
| 2026-04-24 21:46 | 26.47134 | -76.64486 | 24983 ft | 369 kts | 18° |
| 2026-04-24 21:46 | 26.49556 | -76.63459 | 24983 ft | 369 kts | 18° |
| 2026-04-24 21:47 | 26.51928 | -76.62453 | 24983 ft | 369 kts | 18° |
| 2026-04-24 21:47 | 26.53530 | -76.61774 | 24983 ft | 369 kts | 18° |
| 2026-04-24 21:47 | 26.56724 | -76.60418 | 24984 ft | 369 kts | 18° |
| 2026-04-24 21:47 | 26.59127 | -76.59398 | 24984 ft | 369 kts | 18° |
| 2026-04-24 21:48 | 26.61503 | -76.58388 | 24984 ft | 369 kts | 18° |
| 2026-04-24 21:48 | 26.63919 | -76.57362 | 24984 ft | 369 kts | 18° |
| 2026-04-24 21:48 | 26.66299 | -76.56349 | 24984 ft | 369 kts | 18° |
| 2026-04-24 21:48 | 26.68700 | -76.55328 | 24984 ft | 369 kts | 18° |
| 2026-04-24 21:49 | 26.71085 | -76.54313 | 24984 ft | 369 kts | 18° |
| 2026-04-24 21:49 | 26.73513 | -76.53279 | 24985 ft | 369 kts | 18° |
| 2026-04-24 21:49 | 26.75915 | -76.52256 | 24985 ft | 369 kts | 18° |
| 2026-04-24 21:49 | 26.78284 | -76.51247 | 24985 ft | 369 kts | 18° |
| 2026-04-24 21:50 | 26.80705 | -76.50214 | 24985 ft | 369 kts | 18° |
| 2026-04-24 21:50 | 26.83075 | -76.49203 | 24985 ft | 370 kts | 18° |
| 2026-04-24 21:50 | 26.85506 | -76.48165 | 24985 ft | 370 kts | 18° |
| 2026-04-24 21:50 | 26.87882 | -76.47151 | 24985 ft | 370 kts | 18° |
| 2026-04-24 21:51 | 26.90299 | -76.46117 | 24986 ft | 370 kts | 17° |
| 2026-04-24 21:51 | 26.92686 | -76.45094 | 24986 ft | 369 kts | 17° |
| 2026-04-24 21:51 | 26.95082 | -76.44069 | 24987 ft | 369 kts | 17° |
| 2026-04-24 21:51 | 26.97471 | -76.43047 | 24987 ft | 369 kts | 16° |
| 2026-04-24 21:52 | 26.99855 | -76.42027 | 24987 ft | 368 kts | 16° |
| 2026-04-24 21:52 | 27.02255 | -76.40999 | 24987 ft | 367 kts | 15° |
| 2026-04-24 21:52 | 27.04602 | -76.39985 | 24985 ft | 368 kts | 17° |
| 2026-04-24 21:52 | 27.06925 | -76.38760 | 24982 ft | 367 kts | 18° |
| 2026-04-24 21:53 | 27.09289 | -76.37633 | 24987 ft | 367 kts | 18° |
| 2026-04-24 21:53 | 27.11599 | -76.36458 | 24986 ft | 367 kts | 19° |
| 2026-04-24 21:53 | 27.13899 | -76.35255 | 24986 ft | 367 kts | 20° |
| 2026-04-24 21:53 | 27.16212 | -76.34035 | 24978 ft | 367 kts | 20° |
| 2026-04-24 21:54 | 27.18499 | -76.32825 | 24978 ft | 366 kts | 20° |
| 2026-04-24 21:54 | 27.20821 | -76.31597 | 24978 ft | 366 kts | 20° |
| 2026-04-24 21:54 | 27.23091 | -76.30396 | 24978 ft | 365 kts | 20° |
| 2026-04-24 21:54 | 27.25392 | -76.29179 | 24978 ft | 365 kts | 20° |
| 2026-04-24 21:55 | 27.27675 | -76.27969 | 24978 ft | 365 kts | 20° |
| 2026-04-24 21:55 | 27.29990 | -76.26743 | 24979 ft | 365 kts | 20° |
| 2026-04-24 21:55 | 27.32276 | -76.25532 | 24979 ft | 364 kts | 20° |
| 2026-04-24 21:55 | 27.34550 | -76.24326 | 24979 ft | 364 kts | 20° |
| 2026-04-24 21:56 | 27.36835 | -76.23114 | 24979 ft | 364 kts | 20° |
| 2026-04-24 21:56 | 27.39162 | -76.21880 | 24979 ft | 364 kts | 20° |
| 2026-04-24 21:56 | 27.41445 | -76.20667 | 24979 ft | 364 kts | 20° |
| 2026-04-24 21:56 | 27.43733 | -76.19452 | 24979 ft | 364 kts | 20° |
| 2026-04-24 21:57 | 27.46020 | -76.18237 | 24980 ft | 364 kts | 20° |
| 2026-04-24 21:57 | 27.48288 | -76.17030 | 24980 ft | 364 kts | 20° |
| 2026-04-24 21:57 | 27.50580 | -76.15811 | 24980 ft | 364 kts | 20° |
| 2026-04-24 21:57 | 27.52890 | -76.14582 | 24980 ft | 364 kts | 20° |
| 2026-04-24 21:58 | 27.55171 | -76.13368 | 24980 ft | 364 kts | 20° |
| 2026-04-24 21:58 | 27.57445 | -76.12157 | 24980 ft | 364 kts | 20° |
| 2026-04-24 21:58 | 27.59735 | -76.10936 | 24980 ft | 364 kts | 20° |
| 2026-04-24 21:58 | 27.62043 | -76.09705 | 24980 ft | 364 kts | 20° |
| 2026-04-24 21:59 | 27.64307 | -76.08498 | 24980 ft | 364 kts | 20° |
| 2026-04-24 21:59 | 27.66617 | -76.07265 | 24981 ft | 364 kts | 20° |
| 2026-04-24 21:59 | 27.68901 | -76.06046 | 24981 ft | 365 kts | 20° |
| 2026-04-24 21:59 | 27.71186 | -76.04826 | 24981 ft | 365 kts | 20° |
| 2026-04-24 22:00 | 27.73456 | -76.03612 | 24981 ft | 365 kts | 20° |
| 2026-04-24 22:00 | 27.75745 | -76.02389 | 24981 ft | 365 kts | 20° |
| 2026-04-24 22:00 | 27.78026 | -76.01168 | 24981 ft | 365 kts | 20° |
| 2026-04-24 22:00 | 27.80313 | -75.99944 | 24981 ft | 365 kts | 20° |
| 2026-04-24 22:01 | 27.82614 | -75.98754 | 24979 ft | 363 kts | 18° |
| 2026-04-24 22:01 | 27.84987 | -75.97736 | 24981 ft | 361 kts | 14° |
| 2026-04-24 22:01 | 27.87328 | -75.96831 | 24981 ft | 361 kts | 13° |
| 2026-04-24 22:01 | 27.89724 | -75.95931 | 24982 ft | 361 kts | 13° |
| 2026-04-24 22:02 | 27.92090 | -75.95045 | 24982 ft | 361 kts | 13° |
| 2026-04-24 22:02 | 27.94493 | -75.94144 | 24982 ft | 361 kts | 13° |
| 2026-04-24 22:02 | 27.96866 | -75.93253 | 24982 ft | 361 kts | 13° |
| 2026-04-24 22:02 | 27.99241 | -75.92361 | 24982 ft | 361 kts | 13° |
| 2026-04-24 22:03 | 28.01610 | -75.91472 | 24982 ft | 361 kts | 13° |
| 2026-04-24 22:03 | 28.03994 | -75.90575 | 24982 ft | 361 kts | 13° |
| 2026-04-24 22:03 | 28.06353 | -75.89688 | 24982 ft | 361 kts | 13° |
| 2026-04-24 22:03 | 28.08752 | -75.88786 | 24982 ft | 361 kts | 13° |
| 2026-04-24 22:04 | 28.11125 | -75.87892 | 24982 ft | 361 kts | 13° |
| 2026-04-24 22:04 | 28.13511 | -75.86993 | 24982 ft | 361 kts | 13° |
| 2026-04-24 22:04 | 28.15894 | -75.86096 | 24982 ft | 361 kts | 13° |
| 2026-04-24 22:04 | 28.18257 | -75.85205 | 24982 ft | 361 kts | 13° |
| 2026-04-24 22:05 | 28.20626 | -75.84312 | 24982 ft | 361 kts | 13° |
| 2026-04-24 22:05 | 28.23007 | -75.83413 | 24982 ft | 361 kts | 13° |
| 2026-04-24 22:05 | 28.25383 | -75.82516 | 24982 ft | 361 kts | 13° |
| 2026-04-24 22:05 | 28.27774 | -75.81613 | 24982 ft | 361 kts | 13° |
| 2026-04-24 22:06 | 28.30137 | -75.80720 | 24983 ft | 361 kts | 13° |
| 2026-04-24 22:06 | 28.32525 | -75.79818 | 24983 ft | 361 kts | 13° |
| 2026-04-24 22:06 | 28.34917 | -75.78913 | 24983 ft | 361 kts | 13° |
| 2026-04-24 22:06 | 28.37260 | -75.78027 | 24983 ft | 361 kts | 13° |
| 2026-04-24 22:07 | 28.39661 | -75.77118 | 24983 ft | 361 kts | 13° |
| 2026-04-24 22:07 | 28.42024 | -75.76223 | 24983 ft | 361 kts | 13° |
| 2026-04-24 22:07 | 28.44405 | -75.75320 | 24983 ft | 361 kts | 13° |
| 2026-04-24 22:07 | 28.46784 | -75.74419 | 24983 ft | 361 kts | 13° |
| 2026-04-24 22:08 | 28.49182 | -75.73509 | 24983 ft | 361 kts | 13° |
| 2026-04-24 22:08 | 28.51541 | -75.72614 | 24983 ft | 361 kts | 13° |
| 2026-04-24 22:08 | 28.53926 | -75.71709 | 24983 ft | 361 kts | 13° |
| 2026-04-24 22:08 | 28.56319 | -75.70800 | 24983 ft | 361 kts | 13° |
| 2026-04-24 22:09 | 28.58683 | -75.69901 | 24984 ft | 361 kts | 13° |
| 2026-04-24 22:09 | 28.61072 | -75.68993 | 24984 ft | 361 kts | 13° |
| 2026-04-24 22:09 | 28.63428 | -75.68097 | 24984 ft | 361 kts | 13° |
| 2026-04-24 22:09 | 28.65833 | -75.67182 | 24984 ft | 361 kts | 13° |
| 2026-04-24 22:10 | 28.68206 | -75.66279 | 24984 ft | 361 kts | 13° |
| 2026-04-24 22:10 | 28.70568 | -75.65379 | 24984 ft | 361 kts | 13° |
| 2026-04-24 22:10 | 28.72968 | -75.64464 | 24984 ft | 361 kts | 13° |
| 2026-04-24 22:10 | 28.75344 | -75.63558 | 24984 ft | 361 kts | 13° |
| 2026-04-24 22:11 | 28.77710 | -75.62656 | 24984 ft | 361 kts | 13° |
| 2026-04-24 22:11 | 28.80101 | -75.61743 | 24984 ft | 361 kts | 13° |
| 2026-04-24 22:11 | 28.82493 | -75.60830 | 24984 ft | 361 kts | 13° |
| 2026-04-24 22:11 | 28.84861 | -75.59925 | 24985 ft | 361 kts | 13° |
| 2026-04-24 22:12 | 28.87228 | -75.59020 | 24985 ft | 361 kts | 13° |
| 2026-04-24 22:12 | 28.89593 | -75.58116 | 24985 ft | 361 kts | 13° |
| 2026-04-24 22:12 | 28.91970 | -75.57207 | 24985 ft | 361 kts | 13° |
| 2026-04-24 22:12 | 28.94243 | -75.56337 | 24985 ft | 361 kts | 13° |
| 2026-04-24 22:13 | 28.96623 | -75.55425 | 24985 ft | 361 kts | 13° |
| 2026-04-24 22:13 | 28.99014 | -75.54508 | 24985 ft | 362 kts | 13° |
| 2026-04-24 22:13 | 29.01398 | -75.53594 | 24985 ft | 362 kts | 13° |
| 2026-04-24 22:13 | 29.03769 | -75.52684 | 24985 ft | 362 kts | 12° |
| 2026-04-24 22:14 | 29.06140 | -75.51775 | 24986 ft | 363 kts | 12° |
| 2026-04-24 22:14 | 29.08538 | -75.50854 | 24986 ft | 364 kts | 12° |
| 2026-04-24 22:14 | 29.10931 | -75.49936 | 24986 ft | 365 kts | 12° |
| 2026-04-24 22:14 | 29.13358 | -75.49004 | 24986 ft | 365 kts | 12° |
| 2026-04-24 22:15 | 29.15772 | -75.48077 | 24986 ft | 366 kts | 12° |
| 2026-04-24 22:15 | 29.18178 | -75.47153 | 24986 ft | 366 kts | 12° |
| 2026-04-24 22:15 | 29.20569 | -75.46233 | 24986 ft | 367 kts | 12° |
| 2026-04-24 22:15 | 29.22999 | -75.45297 | 24986 ft | 367 kts | 12° |
| 2026-04-24 22:16 | 29.25404 | -75.44370 | 24986 ft | 367 kts | 12° |
| 2026-04-24 22:16 | 29.27834 | -75.43434 | 24986 ft | 368 kts | 12° |
| 2026-04-24 22:16 | 29.30265 | -75.42496 | 24987 ft | 368 kts | 12° |
| 2026-04-24 22:16 | 29.32672 | -75.41568 | 24987 ft | 368 kts | 12° |
| 2026-04-24 22:17 | 29.35103 | -75.40630 | 24987 ft | 368 kts | 12° |
| 2026-04-24 22:17 | 29.37498 | -75.39705 | 24987 ft | 368 kts | 12° |
| 2026-04-24 22:17 | 29.39922 | -75.38768 | 24987 ft | 368 kts | 12° |
| 2026-04-24 22:17 | 29.42343 | -75.37832 | 24987 ft | 368 kts | 12° |
| 2026-04-24 22:18 | 29.44766 | -75.36895 | 24987 ft | 368 kts | 12° |
| 2026-04-24 22:18 | 29.47186 | -75.35959 | 24987 ft | 368 kts | 12° |
| 2026-04-24 22:18 | 29.49620 | -75.35017 | 24988 ft | 368 kts | 12° |
| 2026-04-24 22:18 | 29.52047 | -75.34077 | 24977 ft | 368 kts | 13° |
| 2026-04-24 22:19 | 29.54485 | -75.33131 | 24978 ft | 368 kts | 13° |
| 2026-04-24 22:19 | 29.56890 | -75.32199 | 24978 ft | 368 kts | 12° |
| 2026-04-24 22:19 | 29.59322 | -75.31255 | 24978 ft | 368 kts | 12° |
| 2026-04-24 22:19 | 29.61736 | -75.30318 | 24978 ft | 367 kts | 12° |
| 2026-04-24 22:20 | 29.64157 | -75.29378 | 24978 ft | 367 kts | 12° |
| 2026-04-24 22:20 | 29.66560 | -75.28445 | 24978 ft | 367 kts | 12° |
| 2026-04-24 22:20 | 29.68952 | -75.27515 | 24979 ft | 367 kts | 12° |
| 2026-04-24 22:20 | 29.71372 | -75.26575 | 24979 ft | 367 kts | 12° |
| 2026-04-24 22:21 | 29.73786 | -75.25635 | 24979 ft | 367 kts | 12° |
| 2026-04-24 22:21 | 29.76227 | -75.24685 | 24979 ft | 367 kts | 12° |
| 2026-04-24 22:21 | 29.78643 | -75.23743 | 24979 ft | 367 kts | 12° |
| 2026-04-24 22:21 | 29.81050 | -75.22806 | 24979 ft | 367 kts | 12° |
| 2026-04-24 22:22 | 29.83442 | -75.21873 | 24979 ft | 367 kts | 12° |
| 2026-04-24 22:22 | 29.85864 | -75.20928 | 24980 ft | 367 kts | 12° |
| 2026-04-24 22:22 | 29.88289 | -75.19982 | 24980 ft | 367 kts | 12° |
| 2026-04-24 22:22 | 29.90707 | -75.19038 | 24980 ft | 367 kts | 12° |
| 2026-04-24 22:23 | 29.93124 | -75.18093 | 24980 ft | 367 kts | 12° |
| 2026-04-24 22:23 | 29.95529 | -75.17153 | 24973 ft | 368 kts | 12° |
| 2026-04-24 22:23 | 29.97969 | -75.16200 | 24965 ft | 368 kts | 13° |
| 2026-04-24 22:23 | 30.00377 | -75.15256 | 24957 ft | 368 kts | 13° |
| 2026-04-24 22:24 | 30.02781 | -75.14316 | 24949 ft | 368 kts | 13° |
| 2026-04-24 22:24 | 30.05226 | -75.13357 | 24940 ft | 368 kts | 12° |
| 2026-04-24 22:24 | 30.07653 | -75.12406 | 24932 ft | 368 kts | 13° |
| 2026-04-24 22:24 | 30.10054 | -75.11465 | 24926 ft | 368 kts | 13° |
| 2026-04-24 22:25 | 30.12456 | -75.10523 | 24923 ft | 368 kts | 13° |
| 2026-04-24 22:25 | 30.14894 | -75.09566 | 24922 ft | 368 kts | 13° |
| 2026-04-24 22:25 | 30.17286 | -75.08627 | 24920 ft | 367 kts | 13° |
| 2026-04-24 22:25 | 30.19701 | -75.07678 | 24919 ft | 367 kts | 13° |
| 2026-04-24 22:26 | 30.22143 | -75.06718 | 24918 ft | 367 kts | 13° |
| 2026-04-24 22:26 | 30.24552 | -75.05771 | 24916 ft | 367 kts | 13° |
| 2026-04-24 22:26 | 30.26963 | -75.04822 | 24913 ft | 367 kts | 13° |
| 2026-04-24 22:26 | 30.29350 | -75.03882 | 24908 ft | 367 kts | 13° |
| 2026-04-24 22:27 | 30.31761 | -75.02933 | 24903 ft | 367 kts | 13° |
| 2026-04-24 22:27 | 30.34207 | -75.01968 | 24899 ft | 367 kts | 13° |
| 2026-04-24 22:27 | 30.36604 | -75.01023 | 24895 ft | 367 kts | 13° |
| 2026-04-24 22:27 | 30.39033 | -75.00065 | 24892 ft | 367 kts | 13° |
| 2026-04-24 22:28 | 30.41427 | -74.99120 | 24890 ft | 367 kts | 13° |
| 2026-04-24 22:28 | 30.43861 | -74.98158 | 24890 ft | 367 kts | 13° |
| 2026-04-24 22:28 | 30.46277 | -74.97203 | 24890 ft | 367 kts | 13° |
| 2026-04-24 22:28 | 30.48674 | -74.96255 | 24890 ft | 367 kts | 13° |
| 2026-04-24 22:29 | 30.53497 | -74.94347 | 24890 ft | 367 kts | 13° |
| 2026-04-24 22:29 | 30.55898 | -74.93397 | 24890 ft | 367 kts | 13° |
| 2026-04-24 22:29 | 30.58327 | -74.92434 | 24890 ft | 367 kts | 13° |
| 2026-04-24 22:30 | 30.60742 | -74.91476 | 24890 ft | 367 kts | 13° |
| 2026-04-24 22:30 | 30.63157 | -74.90519 | 24891 ft | 367 kts | 13° |
| 2026-04-24 22:30 | 30.65539 | -74.89574 | 24891 ft | 367 kts | 13° |
| 2026-04-24 22:30 | 30.67960 | -74.88612 | 24891 ft | 367 kts | 13° |
| 2026-04-24 22:31 | 30.70391 | -74.87646 | 24891 ft | 367 kts | 13° |
| 2026-04-24 22:31 | 30.72809 | -74.86685 | 24891 ft | 367 kts | 13° |
| 2026-04-24 22:31 | 30.75200 | -74.85735 | 24891 ft | 367 kts | 13° |
| 2026-04-24 22:31 | 30.77617 | -74.84772 | 24891 ft | 367 kts | 13° |
| 2026-04-24 22:32 | 30.80027 | -74.83813 | 24892 ft | 367 kts | 13° |
| 2026-04-24 22:32 | 30.82464 | -74.82842 | 24892 ft | 367 kts | 13° |
| 2026-04-24 22:32 | 30.84865 | -74.81885 | 24892 ft | 367 kts | 13° |
| 2026-04-24 22:32 | 30.87289 | -74.80919 | 24892 ft | 367 kts | 13° |
| 2026-04-24 22:33 | 30.89682 | -74.79964 | 24891 ft | 368 kts | 13° |
| 2026-04-24 22:33 | 30.92119 | -74.78989 | 24891 ft | 368 kts | 13° |
| 2026-04-24 22:33 | 30.94525 | -74.78028 | 24892 ft | 369 kts | 13° |
| 2026-04-24 22:33 | 30.96960 | -74.77055 | 24893 ft | 370 kts | 13° |
| 2026-04-24 22:34 | 30.99388 | -74.76086 | 24893 ft | 372 kts | 13° |
| 2026-04-24 22:34 | 31.01842 | -74.75105 | 24894 ft | 373 kts | 13° |
| 2026-04-24 22:34 | 31.04284 | -74.74127 | 24894 ft | 375 kts | 12° |
| 2026-04-24 22:34 | 31.06751 | -74.73141 | 24897 ft | 377 kts | 12° |
| 2026-04-24 22:35 | 31.09247 | -74.72141 | 24897 ft | 378 kts | 12° |
| 2026-04-24 22:35 | 31.11725 | -74.71148 | 24892 ft | 379 kts | 12° |
| 2026-04-24 22:35 | 31.14234 | -74.70141 | 24892 ft | 379 kts | 13° |
| 2026-04-24 22:35 | 31.16699 | -74.69152 | 24891 ft | 380 kts | 13° |
| 2026-04-24 22:36 | 31.19199 | -74.68147 | 24892 ft | 380 kts | 13° |
| 2026-04-24 22:36 | 31.21704 | -74.67141 | 24892 ft | 380 kts | 13° |
| 2026-04-24 22:36 | 31.24209 | -74.66134 | 24892 ft | 381 kts | 12° |
| 2026-04-24 22:36 | 31.26680 | -74.65140 | 24892 ft | 381 kts | 13° |
| 2026-04-24 22:37 | 31.29186 | -74.64131 | 24892 ft | 381 kts | 13° |
| 2026-04-24 22:37 | 31.31684 | -74.63125 | 24892 ft | 381 kts | 13° |
| 2026-04-24 22:37 | 31.34195 | -74.62113 | 24893 ft | 381 kts | 13° |
| 2026-04-24 22:37 | 31.36676 | -74.61113 | 24892 ft | 381 kts | 13° |
| 2026-04-24 22:38 | 31.39183 | -74.60102 | 24892 ft | 381 kts | 13° |
| 2026-04-24 22:38 | 31.41703 | -74.59084 | 24892 ft | 381 kts | 13° |
| 2026-04-24 22:38 | 31.44211 | -74.58071 | 24891 ft | 381 kts | 13° |
| 2026-04-24 22:38 | 31.46695 | -74.57068 | 24892 ft | 381 kts | 13° |
| 2026-04-24 22:39 | 31.49195 | -74.56057 | 24892 ft | 382 kts | 13° |
| 2026-04-24 22:39 | 31.51714 | -74.55038 | 24891 ft | 382 kts | 13° |
| 2026-04-24 22:39 | 31.54200 | -74.54031 | 24891 ft | 382 kts | 13° |
| 2026-04-24 22:39 | 31.56714 | -74.53014 | 24891 ft | 382 kts | 13° |
| 2026-04-24 22:40 | 31.59210 | -74.52002 | 24891 ft | 382 kts | 12° |
| 2026-04-24 22:40 | 31.61709 | -74.50989 | 24890 ft | 382 kts | 13° |
| 2026-04-24 22:40 | 31.64218 | -74.49971 | 24891 ft | 382 kts | 12° |
| 2026-04-24 22:40 | 31.66741 | -74.48946 | 24890 ft | 382 kts | 12° |
| 2026-04-24 22:41 | 31.69239 | -74.47932 | 24890 ft | 382 kts | 13° |
| 2026-04-24 22:41 | 31.71730 | -74.46921 | 24890 ft | 382 kts | 13° |
| 2026-04-24 22:41 | 31.74250 | -74.45896 | 24889 ft | 382 kts | 13° |
| 2026-04-24 22:41 | 31.75897 | -74.45225 | 24889 ft | 382 kts | 12° |
| 2026-04-24 22:42 | 31.79263 | -74.43855 | 24889 ft | 382 kts | 13° |
| 2026-04-24 22:42 | 31.81760 | -74.42838 | 24888 ft | 382 kts | 13° |
| 2026-04-24 22:42 | 31.84255 | -74.41822 | 24888 ft | 382 kts | 13° |
| 2026-04-24 22:42 | 31.86769 | -74.40796 | 24889 ft | 382 kts | 13° |
| 2026-04-24 22:43 | 31.89275 | -74.39774 | 24889 ft | 382 kts | 13° |
| 2026-04-24 22:43 | 31.91774 | -74.38753 | 24889 ft | 382 kts | 13° |
| 2026-04-24 22:43 | 31.94287 | -74.37727 | 24889 ft | 382 kts | 13° |
| 2026-04-24 22:43 | 31.96771 | -74.36712 | 24889 ft | 382 kts | 13° |
| 2026-04-24 22:44 | 31.99271 | -74.35689 | 24890 ft | 382 kts | 13° |
| 2026-04-24 22:44 | 32.01775 | -74.34665 | 24885 ft | 382 kts | 13° |
| 2026-04-24 22:44 | 32.04283 | -74.33639 | 24879 ft | 382 kts | 13° |
| 2026-04-24 22:44 | 32.06784 | -74.32613 | 24879 ft | 382 kts | 13° |
| 2026-04-24 22:45 | 32.09295 | -74.31584 | 24880 ft | 381 kts | 13° |
| 2026-04-24 22:45 | 32.11799 | -74.30557 | 24875 ft | 381 kts | 13° |
| 2026-04-24 22:45 | 32.14294 | -74.29533 | 24873 ft | 377 kts | 13° |
| 2026-04-24 22:45 | 32.16752 | -74.28521 | 24867 ft | 369 kts | 13° |
| 2026-04-24 22:46 | 32.19126 | -74.27546 | 24869 ft | 363 kts | 13° |
| 2026-04-24 22:46 | 32.21513 | -74.26566 | 24870 ft | 357 kts | 13° |
| 2026-04-24 22:46 | 32.23837 | -74.25612 | 24872 ft | 353 kts | 13° |
| 2026-04-24 22:46 | 32.26128 | -74.24670 | 24873 ft | 350 kts | 12° |
| 2026-04-24 22:47 | 32.28430 | -74.23723 | 24874 ft | 347 kts | 12° |
| 2026-04-24 22:47 | 32.30689 | -74.22793 | 24874 ft | 345 kts | 12° |
| 2026-04-24 22:47 | 32.32946 | -74.21863 | 24875 ft | 343 kts | 12° |
| 2026-04-24 22:47 | 32.35187 | -74.20937 | 24876 ft | 342 kts | 12° |
| 2026-04-24 22:48 | 32.37437 | -74.20007 | 24876 ft | 341 kts | 12° |
| 2026-04-24 22:48 | 32.39673 | -74.19084 | 24877 ft | 340 kts | 12° |
| 2026-04-24 22:48 | 32.41898 | -74.18165 | 24877 ft | 339 kts | 12° |
| 2026-04-24 22:48 | 32.44112 | -74.17250 | 24878 ft | 339 kts | 12° |
| 2026-04-24 22:49 | 32.46324 | -74.16335 | 24878 ft | 338 kts | 12° |
| 2026-04-24 22:49 | 32.48538 | -74.15420 | 24878 ft | 338 kts | 12° |
| 2026-04-24 22:49 | 32.50761 | -74.14500 | 24879 ft | 338 kts | 12° |
| 2026-04-24 22:49 | 32.52974 | -74.13583 | 24879 ft | 337 kts | 12° |
| 2026-04-24 22:50 | 32.55171 | -74.12673 | 24879 ft | 337 kts | 12° |
| 2026-04-24 22:50 | 32.57403 | -74.11748 | 24879 ft | 337 kts | 12° |
| 2026-04-24 22:50 | 32.59588 | -74.10842 | 24880 ft | 337 kts | 12° |
| 2026-04-24 22:50 | 32.61808 | -74.09921 | 24880 ft | 337 kts | 12° |
| 2026-04-24 22:51 | 32.64007 | -74.09008 | 24880 ft | 337 kts | 12° |
| 2026-04-24 22:51 | 32.66234 | -74.08083 | 24880 ft | 337 kts | 12° |
| 2026-04-24 22:51 | 32.68436 | -74.07167 | 24881 ft | 337 kts | 12° |
| 2026-04-24 22:51 | 32.70628 | -74.06255 | 24881 ft | 337 kts | 12° |
| 2026-04-24 22:52 | 32.72855 | -74.05329 | 24881 ft | 337 kts | 12° |
| 2026-04-24 22:52 | 32.75058 | -74.04412 | 24881 ft | 337 kts | 12° |
| 2026-04-24 22:52 | 32.77251 | -74.03499 | 24882 ft | 337 kts | 12° |
| 2026-04-24 22:52 | 32.79448 | -74.02583 | 24882 ft | 337 kts | 12° |
| 2026-04-24 22:53 | 32.81675 | -74.01655 | 24882 ft | 337 kts | 12° |
| 2026-04-24 22:53 | 32.83882 | -74.00733 | 24882 ft | 337 kts | 12° |
| 2026-04-24 22:53 | 32.86086 | -73.99814 | 24882 ft | 337 kts | 12° |
| 2026-04-24 22:53 | 32.88288 | -73.98894 | 24883 ft | 337 kts | 12° |
| 2026-04-24 22:54 | 32.90501 | -73.97970 | 24883 ft | 337 kts | 12° |
| 2026-04-24 22:54 | 32.92709 | -73.97047 | 24883 ft | 337 kts | 12° |
| 2026-04-24 22:54 | 32.94946 | -73.96111 | 24883 ft | 338 kts | 12° |
| 2026-04-24 22:54 | 32.97150 | -73.95188 | 24883 ft | 338 kts | 12° |
| 2026-04-24 22:55 | 32.99368 | -73.94260 | 24882 ft | 338 kts | 12° |
| 2026-04-24 22:55 | 33.01592 | -73.93328 | 24883 ft | 338 kts | 12° |
| 2026-04-24 22:55 | 33.03808 | -73.92400 | 24884 ft | 339 kts | 12° |
| 2026-04-24 22:55 | 33.06028 | -73.91469 | 24884 ft | 340 kts | 12° |
| 2026-04-24 22:56 | 33.08256 | -73.90535 | 24885 ft | 341 kts | 12° |
| 2026-04-24 22:56 | 33.10492 | -73.89596 | 24884 ft | 342 kts | 12° |
| 2026-04-24 22:56 | 33.12755 | -73.88646 | 24878 ft | 343 kts | 12° |
| 2026-04-24 22:56 | 33.14991 | -73.87705 | 24879 ft | 344 kts | 12° |
| 2026-04-24 22:57 | 33.17254 | -73.86754 | 24880 ft | 345 kts | 13° |
| 2026-04-24 22:57 | 33.19500 | -73.85809 | 24880 ft | 345 kts | 13° |
| 2026-04-24 22:57 | 33.21759 | -73.84856 | 24881 ft | 346 kts | 12° |
| 2026-04-24 22:57 | 33.24049 | -73.83891 | 24880 ft | 346 kts | 12° |
| 2026-04-24 22:58 | 33.26304 | -73.82942 | 24881 ft | 346 kts | 12° |
| 2026-04-24 22:58 | 33.28571 | -73.81986 | 24881 ft | 347 kts | 13° |
| 2026-04-24 22:58 | 33.30837 | -73.81030 | 24881 ft | 347 kts | 13° |
| 2026-04-24 22:58 | 33.33106 | -73.80071 | 24882 ft | 347 kts | 13° |
| 2026-04-24 22:59 | 33.35377 | -73.79112 | 24881 ft | 347 kts | 13° |
| 2026-04-24 22:59 | 33.37651 | -73.78152 | 24882 ft | 348 kts | 13° |
| 2026-04-24 22:59 | 33.42212 | -73.76221 | 24883 ft | 348 kts | 13° |
| 2026-04-24 23:00 | 33.44497 | -73.75255 | 24883 ft | 348 kts | 13° |
| 2026-04-24 23:00 | 33.46783 | -73.74287 | 24883 ft | 348 kts | 13° |
| 2026-04-24 23:00 | 33.49075 | -73.73315 | 24883 ft | 349 kts | 13° |
| 2026-04-24 23:00 | 33.51332 | -73.72358 | 24884 ft | 349 kts | 13° |
| 2026-04-24 23:01 | 33.53611 | -73.71390 | 24884 ft | 349 kts | 13° |
| 2026-04-24 23:01 | 33.55911 | -73.70416 | 24884 ft | 349 kts | 13° |
| 2026-04-24 23:01 | 33.58179 | -73.69450 | 24885 ft | 349 kts | 13° |
| 2026-04-24 23:01 | 33.60466 | -73.68478 | 24884 ft | 349 kts | 13° |
| 2026-04-24 23:02 | 33.62759 | -73.67504 | 24885 ft | 349 kts | 13° |
| 2026-04-24 23:02 | 33.65039 | -73.66534 | 24885 ft | 349 kts | 13° |
| 2026-04-24 23:02 | 33.67322 | -73.65562 | 24886 ft | 349 kts | 13° |
| 2026-04-24 23:02 | 33.69619 | -73.64584 | 24885 ft | 350 kts | 13° |
| 2026-04-24 23:03 | 33.71901 | -73.63612 | 24887 ft | 350 kts | 13° |
| 2026-04-24 23:03 | 33.74191 | -73.62633 | 24886 ft | 350 kts | 13° |
| 2026-04-24 23:03 | 33.76481 | -73.61657 | 24887 ft | 350 kts | 13° |
| 2026-04-24 23:03 | 33.78764 | -73.60682 | 24887 ft | 350 kts | 13° |
| 2026-04-24 23:04 | 33.81038 | -73.59711 | 24887 ft | 350 kts | 13° |
| 2026-04-24 23:04 | 33.83357 | -73.58708 | 24883 ft | 349 kts | 11° |
| 2026-04-24 23:04 | 33.85669 | -73.57953 | 24889 ft | 346 kts | 6° |
| 2026-04-24 23:04 | 33.87997 | -73.57244 | 24888 ft | 346 kts | 7° |
| 2026-04-24 23:05 | 33.90311 | -73.56532 | 24889 ft | 346 kts | 7° |
| 2026-04-24 23:05 | 33.92636 | -73.55808 | 24889 ft | 347 kts | 7° |
| 2026-04-24 23:05 | 33.94981 | -73.55073 | 24889 ft | 347 kts | 7° |
| 2026-04-24 23:05 | 33.97302 | -73.54344 | 24889 ft | 347 kts | 7° |
| 2026-04-24 23:06 | 33.99654 | -73.53606 | 24889 ft | 347 kts | 7° |
| 2026-04-24 23:06 | 34.01974 | -73.52878 | 24890 ft | 347 kts | 7° |
| 2026-04-24 23:06 | 34.04301 | -73.52146 | 24890 ft | 347 kts | 7° |
| 2026-04-24 23:06 | 34.06620 | -73.51417 | 24890 ft | 347 kts | 7° |
| 2026-04-24 23:07 | 34.08972 | -73.50677 | 24890 ft | 347 kts | 7° |
| 2026-04-24 23:07 | 34.11305 | -73.49943 | 24884 ft | 347 kts | 7° |
| 2026-04-24 23:07 | 34.13538 | -73.49239 | 24883 ft | 347 kts | 7° |
| 2026-04-24 23:07 | 34.15847 | -73.48511 | 24884 ft | 347 kts | 7° |
| 2026-04-24 23:08 | 34.18197 | -73.47771 | 24883 ft | 347 kts | 7° |
| 2026-04-24 23:08 | 34.20495 | -73.47046 | 24883 ft | 346 kts | 7° |
| 2026-04-24 23:08 | 34.22824 | -73.46310 | 24884 ft | 346 kts | 7° |
| 2026-04-24 23:08 | 34.25150 | -73.45576 | 24884 ft | 346 kts | 7° |
| 2026-04-24 23:09 | 34.27475 | -73.44841 | 24884 ft | 346 kts | 7° |
| 2026-04-24 23:09 | 34.29811 | -73.44102 | 24886 ft | 346 kts | 7° |
| 2026-04-24 23:09 | 34.32136 | -73.43366 | 24884 ft | 346 kts | 7° |
| 2026-04-24 23:09 | 34.34462 | -73.42631 | 24885 ft | 346 kts | 7° |
| 2026-04-24 23:10 | 34.36813 | -73.41886 | 24896 ft | 346 kts | 7° |
| 2026-04-24 23:10 | 34.39125 | -73.41151 | 24921 ft | 345 kts | 7° |
| 2026-04-24 23:10 | 34.41439 | -73.40419 | 24922 ft | 345 kts | 7° |
| 2026-04-24 23:10 | 34.43760 | -73.39682 | 24924 ft | 346 kts | 7° |
| 2026-04-24 23:11 | 34.46080 | -73.38946 | 24923 ft | 346 kts | 7° |
| 2026-04-24 23:11 | 34.48396 | -73.38210 | 24924 ft | 346 kts | 7° |
| 2026-04-24 23:11 | 34.50712 | -73.37474 | 24924 ft | 346 kts | 7° |
| 2026-04-24 23:11 | 34.53026 | -73.36738 | 24924 ft | 346 kts | 7° |
| 2026-04-24 23:12 | 34.55375 | -73.35991 | 24925 ft | 346 kts | 7° |
| 2026-04-24 23:12 | 34.57706 | -73.35249 | 24925 ft | 346 kts | 7° |
| 2026-04-24 23:12 | 34.60024 | -73.34510 | 24915 ft | 346 kts | 7° |
| 2026-04-24 23:12 | 34.62353 | -73.33768 | 24914 ft | 346 kts | 7° |
| 2026-04-24 23:13 | 34.64665 | -73.33030 | 24915 ft | 346 kts | 7° |
| 2026-04-24 23:13 | 34.66993 | -73.32286 | 24915 ft | 346 kts | 7° |
| 2026-04-24 23:13 | 34.69301 | -73.31550 | 24915 ft | 345 kts | 7° |
| 2026-04-24 23:13 | 34.71625 | -73.30808 | 24915 ft | 345 kts | 7° |
| 2026-04-24 23:14 | 34.73935 | -73.30070 | 24915 ft | 345 kts | 7° |
| 2026-04-24 23:14 | 34.76271 | -73.29321 | 24916 ft | 345 kts | 7° |
| 2026-04-24 23:14 | 34.78589 | -73.28580 | 24916 ft | 345 kts | 7° |
| 2026-04-24 23:14 | 34.80901 | -73.27839 | 24916 ft | 345 kts | 7° |
| 2026-04-24 23:15 | 34.83207 | -73.27100 | 24917 ft | 345 kts | 7° |
| 2026-04-24 23:15 | 34.85522 | -73.26358 | 24917 ft | 345 kts | 7° |
| 2026-04-24 23:15 | 34.87848 | -73.25612 | 24917 ft | 345 kts | 7° |
| 2026-04-24 23:15 | 34.90166 | -73.24869 | 24918 ft | 345 kts | 8° |
| 2026-04-24 23:16 | 34.92479 | -73.24133 | 24919 ft | 345 kts | 9° |
| 2026-04-24 23:16 | 34.94779 | -73.23395 | 24920 ft | 345 kts | 9° |
| 2026-04-24 23:16 | 34.97095 | -73.22650 | 24919 ft | 345 kts | 10° |
| 2026-04-24 23:16 | 34.99422 | -73.21901 | 24920 ft | 344 kts | 11° |
| 2026-04-24 23:17 | 35.01716 | -73.21163 | 24921 ft | 344 kts | 11° |
| 2026-04-24 23:17 | 35.04041 | -73.20416 | 24921 ft | 343 kts | 12° |
| 2026-04-24 23:17 | 35.06331 | -73.19676 | 24919 ft | 342 kts | 12° |
| 2026-04-24 23:17 | 35.08615 | -73.18934 | 24919 ft | 342 kts | 12° |
| 2026-04-24 23:18 | 35.10935 | -73.18182 | 24915 ft | 342 kts | 12° |
| 2026-04-24 23:18 | 35.13225 | -73.17441 | 24912 ft | 341 kts | 12° |
| 2026-04-24 23:18 | 35.15522 | -73.16698 | 24912 ft | 341 kts | 11° |
| 2026-04-24 23:18 | 35.17816 | -73.15956 | 24913 ft | 341 kts | 11° |
| 2026-04-24 23:19 | 35.20083 | -73.15224 | 24913 ft | 341 kts | 11° |
| 2026-04-24 23:19 | 35.22386 | -73.14478 | 24913 ft | 341 kts | 11° |
| 2026-04-24 23:19 | 35.24661 | -73.13742 | 24914 ft | 341 kts | 11° |
| 2026-04-24 23:19 | 35.26961 | -73.12997 | 24914 ft | 342 kts | 11° |
| 2026-04-24 23:20 | 35.29247 | -73.12256 | 24914 ft | 342 kts | 11° |
| 2026-04-24 23:20 | 35.31541 | -73.11511 | 24914 ft | 343 kts | 11° |
| 2026-04-24 23:20 | 35.33863 | -73.10758 | 24915 ft | 343 kts | 11° |
| 2026-04-24 23:20 | 35.36158 | -73.10013 | 24915 ft | 344 kts | 11° |
| 2026-04-24 23:21 | 35.38454 | -73.09267 | 24915 ft | 345 kts | 11° |
| 2026-04-24 23:21 | 35.40783 | -73.08509 | 24916 ft | 345 kts | 11° |
| 2026-04-24 23:21 | 35.43090 | -73.07758 | 24915 ft | 346 kts | 11° |
| 2026-04-24 23:21 | 35.45424 | -73.06998 | 24916 ft | 347 kts | 11° |
| 2026-04-24 23:22 | 35.47734 | -73.06248 | 24917 ft | 347 kts | 11° |
| 2026-04-24 23:22 | 35.50075 | -73.05484 | 24916 ft | 348 kts | 11° |
| 2026-04-24 23:22 | 35.52411 | -73.04722 | 24917 ft | 349 kts | 11° |
| 2026-04-24 23:22 | 35.54775 | -73.03950 | 24917 ft | 350 kts | 11° |
| 2026-04-24 23:23 | 35.57101 | -73.03191 | 24918 ft | 351 kts | 11° |
| 2026-04-24 23:23 | 35.59468 | -73.02417 | 24918 ft | 351 kts | 11° |
| 2026-04-24 23:23 | 35.61827 | -73.01646 | 24919 ft | 352 kts | 11° |
| 2026-04-24 23:23 | 35.64207 | -73.00868 | 24918 ft | 353 kts | 11° |
| 2026-04-24 23:24 | 35.66563 | -73.00098 | 24919 ft | 354 kts | 11° |
| 2026-04-24 23:24 | 35.68936 | -72.99320 | 24920 ft | 355 kts | 11° |
| 2026-04-24 23:24 | 35.71317 | -72.98538 | 24916 ft | 356 kts | 11° |
| 2026-04-24 23:24 | 35.73720 | -72.97751 | 24910 ft | 357 kts | 11° |
| 2026-04-24 23:25 | 35.76125 | -72.96963 | 24905 ft | 358 kts | 11° |
| 2026-04-24 23:25 | 35.78520 | -72.96176 | 24900 ft | 359 kts | 11° |
| 2026-04-24 23:25 | 35.80920 | -72.95386 | 24896 ft | 360 kts | 11° |
| 2026-04-24 23:25 | 35.83329 | -72.94594 | 24891 ft | 360 kts | 11° |
| 2026-04-24 23:26 | 35.85759 | -72.93795 | 24886 ft | 361 kts | 11° |
| 2026-04-24 23:26 | 35.88184 | -72.92998 | 24887 ft | 361 kts | 11° |
| 2026-04-24 23:26 | 35.90623 | -72.92194 | 24887 ft | 362 kts | 11° |
| 2026-04-24 23:26 | 35.93038 | -72.91397 | 24887 ft | 362 kts | 11° |
| 2026-04-24 23:27 | 35.95471 | -72.90595 | 24887 ft | 362 kts | 11° |
| 2026-04-24 23:27 | 35.97900 | -72.89794 | 24888 ft | 363 kts | 11° |
| 2026-04-24 23:27 | 36.00353 | -72.88983 | 24888 ft | 363 kts | 11° |
| 2026-04-24 23:27 | 36.02776 | -72.88181 | 24888 ft | 363 kts | 11° |
| 2026-04-24 23:28 | 36.05206 | -72.87378 | 24888 ft | 363 kts | 11° |
| 2026-04-24 23:28 | 36.07628 | -72.86578 | 24889 ft | 363 kts | 11° |
| 2026-04-24 23:28 | 36.10073 | -72.85768 | 24889 ft | 363 kts | 11° |
| 2026-04-24 23:28 | 36.12503 | -72.84965 | 24876 ft | 363 kts | 11° |
| 2026-04-24 23:29 | 36.14955 | -72.84151 | 24877 ft | 363 kts | 11° |
| 2026-04-24 23:29 | 36.17374 | -72.83347 | 24877 ft | 362 kts | 11° |
| 2026-04-24 23:29 | 36.19790 | -72.82546 | 24877 ft | 362 kts | 11° |
| 2026-04-24 23:29 | 36.22236 | -72.81734 | 24878 ft | 362 kts | 11° |
| 2026-04-24 23:30 | 36.24643 | -72.80933 | 24878 ft | 362 kts | 11° |
| 2026-04-24 23:30 | 36.27077 | -72.80124 | 24879 ft | 362 kts | 11° |
| 2026-04-24 23:30 | 36.29510 | -72.79314 | 24879 ft | 361 kts | 11° |
| 2026-04-24 23:30 | 36.31932 | -72.78508 | 24880 ft | 361 kts | 11° |
| 2026-04-24 23:31 | 36.34347 | -72.77705 | 24880 ft | 361 kts | 11° |
| 2026-04-24 23:31 | 36.36782 | -72.76891 | 24881 ft | 361 kts | 11° |
| 2026-04-24 23:31 | 36.39188 | -72.76089 | 24881 ft | 361 kts | 11° |
| 2026-04-24 23:31 | 36.41616 | -72.75279 | 24881 ft | 361 kts | 11° |
| 2026-04-24 23:32 | 36.44017 | -72.74476 | 24882 ft | 362 kts | 11° |
| 2026-04-24 23:32 | 36.46470 | -72.73656 | 24882 ft | 362 kts | 11° |
| 2026-04-24 23:32 | 36.48898 | -72.72843 | 24883 ft | 362 kts | 11° |
| 2026-04-24 23:32 | 36.51323 | -72.72032 | 24890 ft | 361 kts | 11° |
| 2026-04-24 23:33 | 36.53723 | -72.71228 | 24901 ft | 361 kts | 11° |
| 2026-04-24 23:33 | 36.55332 | -72.70689 | 24909 ft | 361 kts | 11° |
| 2026-04-24 23:33 | 36.58570 | -72.69603 | 24923 ft | 361 kts | 11° |
| 2026-04-24 23:33 | 36.60989 | -72.68792 | 24933 ft | 361 kts | 11° |
| 2026-04-24 23:34 | 36.63413 | -72.67977 | 24942 ft | 361 kts | 11° |
| 2026-04-24 23:34 | 36.65832 | -72.67165 | 24949 ft | 361 kts | 11° |
| 2026-04-24 23:34 | 36.68269 | -72.66348 | 24949 ft | 362 kts | 11° |
| 2026-04-24 23:34 | 36.70679 | -72.65536 | 24950 ft | 362 kts | 11° |
| 2026-04-24 23:35 | 36.73104 | -72.64720 | 24951 ft | 362 kts | 11° |
| 2026-04-24 23:35 | 36.75532 | -72.63905 | 24950 ft | 362 kts | 11° |
| 2026-04-24 23:35 | 36.77969 | -72.63084 | 24951 ft | 363 kts | 11° |
| 2026-04-24 23:35 | 36.80402 | -72.62262 | 24952 ft | 363 kts | 11° |
| 2026-04-24 23:36 | 36.82834 | -72.61440 | 24952 ft | 363 kts | 11° |
| 2026-04-24 23:36 | 36.85263 | -72.60620 | 24952 ft | 363 kts | 11° |
| 2026-04-24 23:36 | 36.87710 | -72.59793 | 24953 ft | 363 kts | 11° |
| 2026-04-24 23:36 | 36.90117 | -72.58981 | 24953 ft | 363 kts | 11° |
| 2026-04-24 23:37 | 36.92556 | -72.58154 | 24953 ft | 364 kts | 11° |
| 2026-04-24 23:37 | 36.95002 | -72.57325 | 24954 ft | 364 kts | 11° |
| 2026-04-24 23:37 | 36.99884 | -72.55673 | 24956 ft | 363 kts | 11° |
| 2026-04-24 23:38 | 37.02329 | -72.54844 | 24955 ft | 363 kts | 12° |
| 2026-04-24 23:38 | 37.04754 | -72.54022 | 24955 ft | 362 kts | 12° |
| 2026-04-24 23:38 | 37.07168 | -72.53200 | 24955 ft | 361 kts | 12° |
| 2026-04-24 23:38 | 37.09565 | -72.52385 | 24954 ft | 360 kts | 13° |
| 2026-04-24 23:39 | 37.11910 | -72.51587 | 24944 ft | 358 kts | 13° |
| 2026-04-24 23:39 | 37.14303 | -72.50771 | 24942 ft | 356 kts | 13° |
| 2026-04-24 23:39 | 37.16675 | -72.49961 | 24941 ft | 355 kts | 13° |
| 2026-04-24 23:39 | 37.19059 | -72.49146 | 24942 ft | 353 kts | 13° |
| 2026-04-24 23:40 | 37.21397 | -72.48350 | 24942 ft | 352 kts | 13° |
| 2026-04-24 23:40 | 37.23761 | -72.47543 | 24943 ft | 352 kts | 13° |
| 2026-04-24 23:40 | 37.26121 | -72.46737 | 24944 ft | 351 kts | 13° |
| 2026-04-24 23:40 | 37.28467 | -72.45934 | 24944 ft | 351 kts | 13° |
| 2026-04-24 23:41 | 37.30838 | -72.45124 | 24945 ft | 350 kts | 13° |
| 2026-04-24 23:41 | 37.33163 | -72.44327 | 24945 ft | 350 kts | 13° |
| 2026-04-24 23:41 | 37.35520 | -72.43520 | 24945 ft | 350 kts | 13° |
| 2026-04-24 23:41 | 37.37847 | -72.42723 | 24946 ft | 350 kts | 13° |
| 2026-04-24 23:42 | 37.40197 | -72.41918 | 24946 ft | 350 kts | 13° |
| 2026-04-24 23:42 | 37.42548 | -72.41111 | 24947 ft | 349 kts | 13° |
| 2026-04-24 23:42 | 37.44875 | -72.40311 | 24947 ft | 349 kts | 13° |
| 2026-04-24 23:42 | 37.47216 | -72.39507 | 24947 ft | 349 kts | 13° |
| 2026-04-24 23:43 | 37.49569 | -72.38698 | 24947 ft | 349 kts | 13° |
| 2026-04-24 23:43 | 37.51925 | -72.37888 | 24948 ft | 349 kts | 13° |
| 2026-04-24 23:43 | 37.54264 | -72.37083 | 24948 ft | 349 kts | 13° |
| 2026-04-24 23:43 | 37.56597 | -72.36279 | 24948 ft | 349 kts | 13° |
| 2026-04-24 23:44 | 37.58941 | -72.35471 | 24948 ft | 349 kts | 13° |
| 2026-04-24 23:44 | 37.61257 | -72.34672 | 24946 ft | 349 kts | 13° |
| 2026-04-24 23:44 | 37.63597 | -72.33865 | 24941 ft | 349 kts | 14° |
| 2026-04-24 23:44 | 37.65957 | -72.33051 | 24939 ft | 349 kts | 14° |
| 2026-04-24 23:45 | 37.68288 | -72.32244 | 24937 ft | 349 kts | 14° |
| 2026-04-24 23:45 | 37.70630 | -72.31433 | 24934 ft | 349 kts | 14° |
| 2026-04-24 23:45 | 37.72956 | -72.30628 | 24932 ft | 349 kts | 13° |
| 2026-04-24 23:45 | 37.75314 | -72.29813 | 24930 ft | 349 kts | 13° |
| 2026-04-24 23:46 | 37.77655 | -72.29002 | 24927 ft | 349 kts | 14° |
| 2026-04-24 23:46 | 37.79999 | -72.28188 | 24928 ft | 349 kts | 14° |
| 2026-04-24 23:46 | 37.82328 | -72.27380 | 24928 ft | 349 kts | 13° |
| 2026-04-24 23:46 | 37.84681 | -72.26562 | 24928 ft | 349 kts | 14° |
| 2026-04-24 23:47 | 37.87000 | -72.25758 | 24929 ft | 349 kts | 14° |
| 2026-04-24 23:47 | 37.89353 | -72.24939 | 24929 ft | 349 kts | 13° |
| 2026-04-24 23:47 | 37.91679 | -72.24129 | 24929 ft | 349 kts | 13° |
| 2026-04-24 23:47 | 37.94004 | -72.23321 | 24930 ft | 349 kts | 14° |
| 2026-04-24 23:48 | 37.96386 | -72.22491 | 24932 ft | 349 kts | 14° |
| 2026-04-24 23:48 | 37.98712 | -72.21680 | 24934 ft | 349 kts | 14° |
| 2026-04-24 23:48 | 38.01056 | -72.20862 | 24935 ft | 349 kts | 14° |
| 2026-04-24 23:48 | 38.03383 | -72.20050 | 24938 ft | 349 kts | 14° |
| 2026-04-24 23:49 | 38.05739 | -72.19228 | 24939 ft | 350 kts | 14° |
| 2026-04-24 23:49 | 38.08057 | -72.18417 | 24941 ft | 350 kts | 14° |
| 2026-04-24 23:49 | 38.10403 | -72.17596 | 24941 ft | 350 kts | 14° |
| 2026-04-24 23:49 | 38.12758 | -72.16772 | 24934 ft | 349 kts | 14° |
| 2026-04-24 23:50 | 38.15100 | -72.15951 | 24936 ft | 349 kts | 14° |
| 2026-04-24 23:50 | 38.17424 | -72.15138 | 24938 ft | 349 kts | 14° |
| 2026-04-24 23:50 | 38.19763 | -72.14317 | 24940 ft | 348 kts | 14° |
| 2026-04-24 23:50 | 38.22074 | -72.13507 | 24942 ft | 348 kts | 13° |
| 2026-04-24 23:51 | 38.24418 | -72.12684 | 24943 ft | 348 kts | 14° |
| 2026-04-24 23:51 | 38.26757 | -72.11861 | 24947 ft | 348 kts | 14° |
| 2026-04-24 23:51 | 38.29087 | -72.11042 | 24952 ft | 348 kts | 14° |
| 2026-04-24 23:51 | 38.31397 | -72.10230 | 24957 ft | 348 kts | 14° |
| 2026-04-24 23:52 | 38.33733 | -72.09408 | 24961 ft | 348 kts | 14° |
| 2026-04-24 23:52 | 38.36046 | -72.08592 | 24965 ft | 348 kts | 14° |
| 2026-04-24 23:52 | 38.38394 | -72.07764 | 24968 ft | 348 kts | 13° |
| 2026-04-24 23:52 | 38.40712 | -72.06947 | 24970 ft | 348 kts | 13° |
| 2026-04-24 23:53 | 38.43051 | -72.06120 | 24971 ft | 348 kts | 13° |
| 2026-04-24 23:53 | 38.45354 | -72.05307 | 24971 ft | 348 kts | 13° |
| 2026-04-24 23:53 | 38.47700 | -72.04479 | 24972 ft | 348 kts | 14° |
| 2026-04-24 23:53 | 38.50023 | -72.03657 | 24972 ft | 348 kts | 14° |
| 2026-04-24 23:54 | 38.52349 | -72.02834 | 24972 ft | 348 kts | 14° |
| 2026-04-24 23:54 | 38.54670 | -72.02010 | 24973 ft | 348 kts | 14° |
| 2026-04-24 23:54 | 38.57003 | -72.01184 | 24972 ft | 349 kts | 14° |
| 2026-04-24 23:54 | 38.59345 | -72.00354 | 24973 ft | 349 kts | 14° |
| 2026-04-24 23:55 | 38.61664 | -71.99530 | 24973 ft | 349 kts | 14° |
| 2026-04-24 23:55 | 38.64019 | -71.98694 | 24973 ft | 349 kts | 14° |
| 2026-04-24 23:55 | 38.66346 | -71.97867 | 24974 ft | 349 kts | 13° |
| 2026-04-24 23:55 | 38.68697 | -71.97031 | 24974 ft | 349 kts | 14° |
| 2026-04-24 23:56 | 38.71017 | -71.96205 | 24975 ft | 349 kts | 14° |
| 2026-04-24 23:56 | 38.73369 | -71.95367 | 24974 ft | 349 kts | 13° |
| 2026-04-24 23:56 | 38.75690 | -71.94540 | 24975 ft | 349 kts | 13° |
| 2026-04-24 23:56 | 38.78027 | -71.93707 | 24975 ft | 349 kts | 13° |
| 2026-04-24 23:57 | 38.80371 | -71.92870 | 24975 ft | 349 kts | 13° |
| 2026-04-24 23:57 | 38.82701 | -71.92038 | 24976 ft | 349 kts | 14° |
| 2026-04-24 23:57 | 38.85051 | -71.91199 | 24977 ft | 350 kts | 14° |
| 2026-04-24 23:57 | 38.87375 | -71.90368 | 24976 ft | 350 kts | 14° |
| 2026-04-24 23:58 | 38.89725 | -71.89527 | 24976 ft | 350 kts | 14° |
| 2026-04-24 23:58 | 38.92067 | -71.88689 | 24977 ft | 350 kts | 14° |
| 2026-04-24 23:58 | 38.94410 | -71.87851 | 24977 ft | 350 kts | 14° |
| 2026-04-24 23:58 | 38.96746 | -71.87013 | 24978 ft | 350 kts | 14° |
| 2026-04-24 23:59 | 38.99060 | -71.86182 | 24978 ft | 350 kts | 14° |
| 2026-04-24 23:59 | 39.01417 | -71.85337 | 24978 ft | 350 kts | 14° |
| 2026-04-24 23:59 | 39.03761 | -71.84495 | 24978 ft | 350 kts | 14° |
| 2026-04-24 23:59 | 39.06095 | -71.83655 | 24978 ft | 350 kts | 15° |
| 2026-04-25 00:00 | 39.08431 | -71.82814 | 24979 ft | 350 kts | 15° |
| 2026-04-25 00:00 | 39.10768 | -71.81971 | 24974 ft | 350 kts | 14° |
| 2026-04-25 00:00 | 39.13028 | -71.81156 | 24968 ft | 350 kts | 14° |
| 2026-04-25 00:00 | 39.15364 | -71.80315 | 24968 ft | 350 kts | 14° |
| 2026-04-25 00:01 | 39.17704 | -71.79470 | 24969 ft | 349 kts | 15° |
| 2026-04-25 00:01 | 39.20044 | -71.78626 | 24969 ft | 349 kts | 15° |
| 2026-04-25 00:01 | 39.22401 | -71.77774 | 24969 ft | 349 kts | 14° |
| 2026-04-25 00:01 | 39.24730 | -71.76932 | 24970 ft | 349 kts | 15° |
| 2026-04-25 00:02 | 39.27042 | -71.76096 | 24970 ft | 349 kts | 14° |
| 2026-04-25 00:02 | 39.29389 | -71.75246 | 24971 ft | 349 kts | 14° |
| 2026-04-25 00:02 | 39.31727 | -71.74399 | 24972 ft | 349 kts | 14° |
| 2026-04-25 00:02 | 39.34039 | -71.73560 | 24973 ft | 349 kts | 14° |
| 2026-04-25 00:03 | 39.36378 | -71.72712 | 24973 ft | 349 kts | 14° |
| 2026-04-25 00:03 | 39.38702 | -71.71868 | 24976 ft | 349 kts | 15° |
| 2026-04-25 00:03 | 39.41002 | -71.70847 | 24979 ft | 349 kts | 19° |
| 2026-04-25 00:03 | 39.43301 | -71.69785 | 24982 ft | 349 kts | 20° |
| 2026-04-25 00:04 | 39.45542 | -71.68668 | 24984 ft | 349 kts | 21° |
| 2026-04-25 00:04 | 39.47816 | -71.67497 | 24987 ft | 349 kts | 21° |
| 2026-04-25 00:04 | 39.50036 | -71.66345 | 24989 ft | 349 kts | 21° |
| 2026-04-25 00:04 | 39.52314 | -71.65160 | 24991 ft | 349 kts | 21° |
| 2026-04-25 00:05 | 39.54543 | -71.64002 | 24993 ft | 349 kts | 21° |
| 2026-04-25 00:05 | 39.56811 | -71.62822 | 24992 ft | 349 kts | 21° |
| 2026-04-25 00:05 | 39.59061 | -71.61650 | 24993 ft | 349 kts | 21° |
| 2026-04-25 00:05 | 39.61303 | -71.60483 | 24993 ft | 350 kts | 21° |
| 2026-04-25 00:06 | 39.63565 | -71.59302 | 24993 ft | 350 kts | 21° |
| 2026-04-25 00:06 | 39.65800 | -71.58137 | 24993 ft | 350 kts | 22° |
| 2026-04-25 00:06 | 39.67306 | -71.57351 | 24993 ft | 350 kts | 22° |
| 2026-04-25 00:06 | 39.70308 | -71.55783 | 24994 ft | 350 kts | 21° |
| 2026-04-25 00:07 | 39.72553 | -71.54609 | 24994 ft | 350 kts | 21° |
| 2026-04-25 00:07 | 39.74821 | -71.53423 | 24995 ft | 350 kts | 21° |
| 2026-04-25 00:07 | 39.77073 | -71.52243 | 24995 ft | 350 kts | 21° |
| 2026-04-25 00:07 | 39.79329 | -71.51061 | 24995 ft | 350 kts | 21° |
| 2026-04-25 00:08 | 39.81603 | -71.49869 | 24994 ft | 350 kts | 21° |
| 2026-04-25 00:08 | 39.83844 | -71.48694 | 24995 ft | 350 kts | 21° |
| 2026-04-25 00:08 | 39.86096 | -71.47510 | 24994 ft | 350 kts | 21° |
| 2026-04-25 00:08 | 39.88372 | -71.46316 | 24994 ft | 351 kts | 21° |
| 2026-04-25 00:09 | 39.90610 | -71.45139 | 24994 ft | 351 kts | 21° |
| 2026-04-25 00:09 | 39.92870 | -71.43950 | 24994 ft | 351 kts | 21° |
| 2026-04-25 00:09 | 39.95130 | -71.42760 | 24994 ft | 351 kts | 21° |
| 2026-04-25 00:09 | 39.97402 | -71.41563 | 24994 ft | 351 kts | 21° |
| 2026-04-25 00:10 | 39.99656 | -71.40374 | 24993 ft | 351 kts | 21° |
| 2026-04-25 00:10 | 40.01916 | -71.39182 | 24993 ft | 351 kts | 21° |
| 2026-04-25 00:10 | 40.04179 | -71.37987 | 24993 ft | 351 kts | 21° |
| 2026-04-25 00:10 | 40.06432 | -71.36797 | 24993 ft | 351 kts | 21° |
| 2026-04-25 00:11 | 40.08679 | -71.35608 | 24993 ft | 351 kts | 22° |
| 2026-04-25 00:11 | 40.10211 | -71.34797 | 24991 ft | 351 kts | 22° |
| 2026-04-25 00:11 | 40.13210 | -71.33210 | 24987 ft | 350 kts | 22° |
| 2026-04-25 00:11 | 40.15475 | -71.32010 | 25001 ft | 350 kts | 22° |
| 2026-04-25 00:12 | 40.17723 | -71.30817 | 25002 ft | 349 kts | 22° |
| 2026-04-25 00:12 | 40.19968 | -71.29626 | 25003 ft | 349 kts | 22° |
| 2026-04-25 00:12 | 40.22201 | -71.28440 | 25004 ft | 349 kts | 22° |
| 2026-04-25 00:12 | 40.24451 | -71.27244 | 25005 ft | 349 kts | 22° |
| 2026-04-25 00:13 | 40.26705 | -71.26047 | 25005 ft | 348 kts | 22° |
| 2026-04-25 00:13 | 40.28943 | -71.24855 | 25006 ft | 348 kts | 22° |
| 2026-04-25 00:13 | 40.31189 | -71.23659 | 25006 ft | 348 kts | 22° |
| 2026-04-25 00:13 | 40.33434 | -71.22463 | 25006 ft | 348 kts | 22° |
| 2026-04-25 00:14 | 40.35668 | -71.21270 | 25006 ft | 348 kts | 22° |
| 2026-04-25 00:14 | 40.37928 | -71.20064 | 25007 ft | 349 kts | 22° |
| 2026-04-25 00:14 | 40.40171 | -71.18866 | 25007 ft | 349 kts | 22° |
| 2026-04-25 00:14 | 40.42398 | -71.17677 | 25007 ft | 349 kts | 22° |
| 2026-04-25 00:15 | 40.44648 | -71.16473 | 25008 ft | 349 kts | 22° |
| 2026-04-25 00:15 | 40.46879 | -71.15277 | 25008 ft | 349 kts | 22° |
| 2026-04-25 00:15 | 40.49120 | -71.14078 | 25008 ft | 349 kts | 22° |
| 2026-04-25 00:15 | 40.51373 | -71.12871 | 25008 ft | 349 kts | 22° |
| 2026-04-25 00:16 | 40.53605 | -71.11673 | 25009 ft | 349 kts | 22° |
| 2026-04-25 00:16 | 40.55853 | -71.10465 | 25009 ft | 349 kts | 22° |
| 2026-04-25 00:16 | 40.58092 | -71.09263 | 25009 ft | 349 kts | 22° |
| 2026-04-25 00:16 | 40.60339 | -71.08055 | 25009 ft | 349 kts | 22° |
| 2026-04-25 00:17 | 40.62595 | -71.06840 | 25010 ft | 349 kts | 22° |
| 2026-04-25 00:17 | 40.64843 | -71.05630 | 25010 ft | 349 kts | 22° |
| 2026-04-25 00:17 | 40.67067 | -71.04433 | 25010 ft | 349 kts | 22° |
| 2026-04-25 00:17 | 40.69339 | -71.03208 | 25011 ft | 349 kts | 22° |
| 2026-04-25 00:18 | 40.71564 | -71.02007 | 25011 ft | 349 kts | 22° |
| 2026-04-25 00:18 | 40.73828 | -71.00785 | 25011 ft | 349 kts | 22° |
| 2026-04-25 00:18 | 40.76060 | -70.99578 | 25012 ft | 349 kts | 22° |
| 2026-04-25 00:18 | 40.78306 | -70.98364 | 25011 ft | 349 kts | 22° |
| 2026-04-25 00:19 | 40.80561 | -70.97144 | 25012 ft | 349 kts | 22° |
| 2026-04-25 00:19 | 40.82779 | -70.95942 | 25012 ft | 349 kts | 22° |
| 2026-04-25 00:19 | 40.85025 | -70.94725 | 25012 ft | 349 kts | 22° |
| 2026-04-25 00:19 | 40.87279 | -70.93503 | 25013 ft | 349 kts | 22° |
| 2026-04-25 00:20 | 40.89507 | -70.92293 | 25013 ft | 348 kts | 22° |
| 2026-04-25 00:20 | 40.91741 | -70.91080 | 25013 ft | 348 kts | 22° |
| 2026-04-25 00:20 | 40.93959 | -70.89874 | 25013 ft | 348 kts | 22° |
| 2026-04-25 00:20 | 40.96212 | -70.88648 | 25014 ft | 348 kts | 22° |
| 2026-04-25 00:21 | 40.98456 | -70.87428 | 25013 ft | 348 kts | 22° |
| 2026-04-25 00:21 | 41.00673 | -70.86224 | 25013 ft | 348 kts | 23° |
| 2026-04-25 00:21 | 41.02918 | -70.85002 | 25014 ft | 348 kts | 24° |
| 2026-04-25 00:21 | 41.05150 | -70.83785 | 25015 ft | 349 kts | 24° |
| 2026-04-25 00:22 | 41.07412 | -70.82551 | 25016 ft | 349 kts | 24° |
| 2026-04-25 00:22 | 41.09648 | -70.81330 | 25016 ft | 350 kts | 25° |
| 2026-04-25 00:22 | 41.11904 | -70.80096 | 25004 ft | 350 kts | 25° |
| 2026-04-25 00:22 | 41.14135 | -70.78875 | 25004 ft | 350 kts | 26° |
| 2026-04-25 00:23 | 41.16398 | -70.77631 | 25004 ft | 349 kts | 25° |
| 2026-04-25 00:23 | 41.18652 | -70.76392 | 25004 ft | 349 kts | 26° |
| 2026-04-25 00:23 | 41.20884 | -70.75169 | 25005 ft | 349 kts | 25° |
| 2026-04-25 00:23 | 41.23127 | -70.73938 | 25005 ft | 349 kts | 25° |
| 2026-04-25 00:24 | 41.25391 | -70.72694 | 25005 ft | 349 kts | 25° |
| 2026-04-25 00:24 | 41.27616 | -70.71471 | 25006 ft | 349 kts | 25° |
| 2026-04-25 00:24 | 41.29889 | -70.70222 | 25006 ft | 349 kts | 25° |
| 2026-04-25 00:24 | 41.32129 | -70.68988 | 25006 ft | 349 kts | 25° |
| 2026-04-25 00:25 | 41.34377 | -70.67750 | 25007 ft | 349 kts | 25° |
| 2026-04-25 00:25 | 41.36626 | -70.66511 | 25007 ft | 349 kts | 25° |
| 2026-04-25 00:25 | 41.38885 | -70.65263 | 25007 ft | 349 kts | 25° |
| 2026-04-25 00:25 | 41.41122 | -70.64029 | 25008 ft | 349 kts | 25° |
| 2026-04-25 00:26 | 41.43391 | -70.62775 | 25008 ft | 349 kts | 25° |
| 2026-04-25 00:26 | 41.45628 | -70.61539 | 25008 ft | 349 kts | 25° |
| 2026-04-25 00:26 | 41.47895 | -70.60284 | 25010 ft | 349 kts | 25° |
| 2026-04-25 00:26 | 41.50127 | -70.59048 | 25011 ft | 349 kts | 25° |
| 2026-04-25 00:27 | 41.52383 | -70.57797 | 25013 ft | 350 kts | 25° |
| 2026-04-25 00:27 | 41.54619 | -70.56557 | 25014 ft | 350 kts | 25° |
| 2026-04-25 00:27 | 41.56837 | -70.55327 | 25016 ft | 350 kts | 25° |
| 2026-04-25 00:27 | 41.59082 | -70.54079 | 25017 ft | 350 kts | 25° |
| 2026-04-25 00:28 | 41.61233 | -70.52884 | 25018 ft | 350 kts | 25° |
| 2026-04-25 00:28 | 41.63489 | -70.51629 | 25017 ft | 350 kts | 25° |
| 2026-04-25 00:28 | 41.65720 | -70.50386 | 25017 ft | 350 kts | 25° |
| 2026-04-25 00:28 | 41.67973 | -70.49133 | 25015 ft | 350 kts | 25° |
| 2026-04-25 00:29 | 41.70237 | -70.47869 | 25015 ft | 350 kts | 25° |
| 2026-04-25 00:29 | 41.72483 | -70.46616 | 25014 ft | 351 kts | 25° |
| 2026-04-25 00:29 | 41.74723 | -70.45366 | 25013 ft | 351 kts | 25° |
| 2026-04-25 00:29 | 41.76987 | -70.44100 | 25013 ft | 351 kts | 25° |
| 2026-04-25 00:30 | 41.79249 | -70.42835 | 25013 ft | 351 kts | 25° |
| 2026-04-25 00:30 | 41.81497 | -70.41577 | 25015 ft | 351 kts | 25° |
| 2026-04-25 00:30 | 41.83756 | -70.40312 | 25016 ft | 351 kts | 25° |
| 2026-04-25 00:30 | 41.85986 | -70.39062 | 25019 ft | 351 kts | 25° |
| 2026-04-25 00:31 | 41.88247 | -70.37794 | 25021 ft | 351 kts | 25° |
| 2026-04-25 00:31 | 41.90512 | -70.36522 | 25025 ft | 351 kts | 25° |
| 2026-04-25 00:31 | 41.92762 | -70.35258 | 25029 ft | 351 kts | 25° |
| 2026-04-25 00:31 | 41.94985 | -70.34009 | 25030 ft | 351 kts | 26° |
| 2026-04-25 00:32 | 41.97231 | -70.32745 | 25032 ft | 351 kts | 26° |
| 2026-04-25 00:32 | 41.99500 | -70.31467 | 25032 ft | 351 kts | 26° |
| 2026-04-25 00:32 | 42.01751 | -70.30198 | 25033 ft | 351 kts | 26° |
| 2026-04-25 00:32 | 42.03255 | -70.29350 | 25034 ft | 351 kts | 26° |
| 2026-04-25 00:33 | 42.06254 | -70.27659 | 25034 ft | 351 kts | 26° |
| 2026-04-25 00:33 | 42.08495 | -70.26392 | 25034 ft | 351 kts | 26° |
| 2026-04-25 00:33 | 42.10738 | -70.25125 | 25029 ft | 351 kts | 26° |
| 2026-04-25 00:33 | 42.12983 | -70.23853 | 25021 ft | 351 kts | 26° |
| 2026-04-25 00:34 | 42.15263 | -70.22563 | 25022 ft | 351 kts | 26° |
| 2026-04-25 00:34 | 42.17507 | -70.21294 | 25022 ft | 350 kts | 26° |
| 2026-04-25 00:34 | 42.19768 | -70.20010 | 25023 ft | 350 kts | 26° |
| 2026-04-25 00:34 | 42.22012 | -70.18737 | 25023 ft | 350 kts | 26° |
| 2026-04-25 00:35 | 42.24236 | -70.17474 | 25023 ft | 349 kts | 26° |
| 2026-04-25 00:35 | 42.26394 | -70.16248 | 25023 ft | 349 kts | 26° |
| 2026-04-25 00:35 | 42.28644 | -70.14967 | 25024 ft | 349 kts | 26° |
| 2026-04-25 00:35 | 42.30874 | -70.13697 | 25024 ft | 349 kts | 26° |
| 2026-04-25 00:36 | 42.33127 | -70.12415 | 25025 ft | 349 kts | 26° |
| 2026-04-25 00:36 | 42.35354 | -70.11146 | 25025 ft | 349 kts | 26° |
| 2026-04-25 00:36 | 42.37588 | -70.09871 | 25025 ft | 349 kts | 26° |
| 2026-04-25 00:36 | 42.39834 | -70.08588 | 25026 ft | 349 kts | 26° |
| 2026-04-25 00:37 | 42.42086 | -70.07301 | 25026 ft | 349 kts | 26° |
| 2026-04-25 00:37 | 42.44306 | -70.06033 | 25026 ft | 349 kts | 26° |
| 2026-04-25 00:37 | 42.46535 | -70.04756 | 25027 ft | 349 kts | 26° |
| 2026-04-25 00:37 | 42.48768 | -70.03477 | 25027 ft | 349 kts | 26° |
| 2026-04-25 00:38 | 42.50997 | -70.02200 | 25027 ft | 349 kts | 26° |
| 2026-04-25 00:38 | 42.53248 | -70.00909 | 25028 ft | 350 kts | 26° |
| 2026-04-25 00:38 | 42.55468 | -69.99634 | 25027 ft | 350 kts | 26° |
| 2026-04-25 00:38 | 42.57731 | -69.98334 | 25028 ft | 350 kts | 26° |
| 2026-04-25 00:39 | 42.59982 | -69.97039 | 25028 ft | 350 kts | 26° |
| 2026-04-25 00:39 | 42.62224 | -69.95749 | 25029 ft | 350 kts | 26° |
| 2026-04-25 00:39 | 42.64447 | -69.94469 | 25029 ft | 350 kts | 26° |
| 2026-04-25 00:39 | 42.66690 | -69.93176 | 25029 ft | 350 kts | 26° |
| 2026-04-25 00:40 | 42.68927 | -69.91886 | 25029 ft | 350 kts | 26° |
| 2026-04-25 00:40 | 42.71152 | -69.90602 | 25029 ft | 350 kts | 26° |
| 2026-04-25 00:40 | 42.73381 | -69.89314 | 25030 ft | 350 kts | 26° |
| 2026-04-25 00:40 | 42.75635 | -69.88010 | 25030 ft | 350 kts | 26° |
| 2026-04-25 00:41 | 42.77849 | -69.86729 | 25030 ft | 350 kts | 26° |
| 2026-04-25 00:41 | 42.80111 | -69.85420 | 25030 ft | 350 kts | 26° |
| 2026-04-25 00:41 | 42.82354 | -69.84120 | 25031 ft | 350 kts | 26° |
| 2026-04-25 00:41 | 42.84587 | -69.82825 | 25031 ft | 351 kts | 26° |
| 2026-04-25 00:42 | 42.86810 | -69.81482 | 25031 ft | 350 kts | 29° |
| 2026-04-25 00:42 | 42.88999 | -69.80001 | 25032 ft | 349 kts | 30° |
| 2026-04-25 00:42 | 42.91174 | -69.78503 | 25034 ft | 350 kts | 31° |
| 2026-04-25 00:42 | 42.93323 | -69.77025 | 25037 ft | 350 kts | 31° |
| 2026-04-25 00:43 | 42.95495 | -69.75532 | 25041 ft | 351 kts | 31° |
| 2026-04-25 00:43 | 42.97676 | -69.74031 | 25045 ft | 351 kts | 31° |
| 2026-04-25 00:43 | 42.99860 | -69.72527 | 25051 ft | 352 kts | 31° |
| 2026-04-25 00:43 | 43.02046 | -69.71023 | 25056 ft | 352 kts | 31° |
| 2026-04-25 00:44 | 43.04230 | -69.69518 | 25063 ft | 353 kts | 31° |
| 2026-04-25 00:44 | 43.06421 | -69.68006 | 25067 ft | 354 kts | 31° |
| 2026-04-25 00:44 | 43.08632 | -69.66477 | 25068 ft | 355 kts | 31° |
| 2026-04-25 00:44 | 43.10727 | -69.65030 | 25062 ft | 355 kts | 31° |
| 2026-04-25 00:45 | 43.12933 | -69.63506 | 25053 ft | 355 kts | 31° |
| 2026-04-25 00:45 | 43.15145 | -69.61976 | 25053 ft | 355 kts | 31° |
| 2026-04-25 00:45 | 43.17323 | -69.60467 | 25052 ft | 355 kts | 31° |
| 2026-04-25 00:45 | 43.19556 | -69.58919 | 25051 ft | 355 kts | 31° |
| 2026-04-25 00:46 | 43.21752 | -69.57395 | 25050 ft | 355 kts | 31° |
| 2026-04-25 00:46 | 43.23968 | -69.55857 | 25051 ft | 354 kts | 31° |
| 2026-04-25 00:46 | 43.28368 | -69.52799 | 25051 ft | 354 kts | 31° |
| 2026-04-25 00:47 | 43.30547 | -69.51283 | 25051 ft | 354 kts | 31° |
| 2026-04-25 00:47 | 43.32761 | -69.49740 | 25052 ft | 354 kts | 31° |
| 2026-04-25 00:47 | 43.34949 | -69.48216 | 25052 ft | 354 kts | 31° |
| 2026-04-25 00:47 | 43.37136 | -69.46689 | 25053 ft | 355 kts | 31° |
| 2026-04-25 00:48 | 43.39350 | -69.45143 | 25053 ft | 355 kts | 31° |
| 2026-04-25 00:48 | 43.41533 | -69.43619 | 25053 ft | 355 kts | 31° |
| 2026-04-25 00:48 | 43.43726 | -69.42084 | 25053 ft | 355 kts | 31° |
| 2026-04-25 00:48 | 43.45929 | -69.40543 | 25054 ft | 355 kts | 31° |
| 2026-04-25 00:49 | 43.48126 | -69.39003 | 25054 ft | 355 kts | 31° |
| 2026-04-25 00:49 | 43.50322 | -69.37463 | 25055 ft | 355 kts | 31° |
| 2026-04-25 00:49 | 43.52522 | -69.35921 | 25055 ft | 355 kts | 31° |
| 2026-04-25 00:49 | 43.54595 | -69.34466 | 25055 ft | 355 kts | 32° |
| 2026-04-25 00:50 | 43.56576 | -69.33073 | 25053 ft | 355 kts | 32° |
| 2026-04-25 00:50 | 43.58785 | -69.31520 | 25053 ft | 355 kts | 32° |
| 2026-04-25 00:50 | 43.60967 | -69.29983 | 25052 ft | 355 kts | 32° |
| 2026-04-25 00:50 | 43.63172 | -69.28429 | 25051 ft | 355 kts | 32° |
| 2026-04-25 00:51 | 43.65360 | -69.26887 | 25050 ft | 355 kts | 32° |
| 2026-04-25 00:51 | 43.67565 | -69.25330 | 25049 ft | 355 kts | 32° |
| 2026-04-25 00:51 | 43.69748 | -69.23789 | 25048 ft | 355 kts | 32° |
| 2026-04-25 00:51 | 43.71963 | -69.22224 | 25047 ft | 356 kts | 32° |
| 2026-04-25 00:52 | 43.74192 | -69.20647 | 25044 ft | 356 kts | 32° |
| 2026-04-25 00:52 | 43.76370 | -69.19105 | 25043 ft | 356 kts | 32° |
| 2026-04-25 00:52 | 43.78598 | -69.17526 | 24883 ft | 360 kts | 32° |
| 2026-04-25 00:52 | 43.80792 | -69.15970 | 24478 ft | 354 kts | 32° |
| 2026-04-25 00:53 | 43.82983 | -69.14420 | 24076 ft | 348 kts | 32° |
| 2026-04-25 00:53 | 43.85117 | -69.12904 | 23677 ft | 343 kts | 32° |
| 2026-04-25 00:53 | 43.87233 | -69.11400 | 23279 ft | 339 kts | 32° |
| 2026-04-25 00:53 | 43.89318 | -69.09915 | 22885 ft | 336 kts | 32° |
| 2026-04-25 00:54 | 43.91392 | -69.08439 | 22490 ft | 332 kts | 32° |
| 2026-04-25 00:54 | 43.93447 | -69.06973 | 22096 ft | 330 kts | 32° |
| 2026-04-25 00:54 | 43.95480 | -69.05518 | 21703 ft | 327 kts | 31° |
| 2026-04-25 00:54 | 43.97474 | -69.04093 | 21317 ft | 325 kts | 31° |
| 2026-04-25 00:55 | 43.99472 | -69.02667 | 20928 ft | 323 kts | 31° |
| 2026-04-25 00:55 | 44.01481 | -69.01236 | 20534 ft | 321 kts | 31° |
| 2026-04-25 00:55 | 44.03466 | -68.99818 | 20143 ft | 319 kts | 31° |
| 2026-04-25 00:55 | 44.05423 | -68.98418 | 19756 ft | 317 kts | 31° |
| 2026-04-25 00:56 | 44.07386 | -68.97012 | 19366 ft | 316 kts | 31° |
| 2026-04-25 00:56 | 44.09349 | -68.95604 | 18975 ft | 314 kts | 31° |
| 2026-04-25 00:56 | 44.11267 | -68.94228 | 18578 ft | 313 kts | 31° |
| 2026-04-25 00:56 | 44.13198 | -68.92841 | 18170 ft | 311 kts | 31° |
| 2026-04-25 00:57 | 44.15069 | -68.91498 | 17754 ft | 311 kts | 31° |
| 2026-04-25 00:57 | 44.17013 | -68.90099 | 17317 ft | 310 kts | 31° |
| 2026-04-25 00:57 | 44.18938 | -68.88713 | 16884 ft | 309 kts | 31° |
| 2026-04-25 00:57 | 44.20851 | -68.87336 | 16453 ft | 308 kts | 31° |
| 2026-04-25 00:58 | 44.22746 | -68.85970 | 16024 ft | 307 kts | 31° |
| 2026-04-25 00:58 | 44.24648 | -68.84598 | 15593 ft | 306 kts | 31° |
| 2026-04-25 00:58 | 44.26557 | -68.83221 | 15159 ft | 305 kts | 31° |
| 2026-04-25 00:58 | 44.28422 | -68.81873 | 14734 ft | 304 kts | 31° |
| 2026-04-25 00:59 | 44.30317 | -68.80504 | 14300 ft | 303 kts | 31° |
| 2026-04-25 00:59 | 44.32187 | -68.79152 | 13871 ft | 302 kts | 31° |
| 2026-04-25 00:59 | 44.34042 | -68.77811 | 13433 ft | 297 kts | 31° |
| 2026-04-25 00:59 | 44.35837 | -68.76514 | 12872 ft | 287 kts | 32° |
| 2026-04-25 01:00 | 44.37589 | -68.75243 | 12306 ft | 279 kts | 32° |
| 2026-04-25 01:00 | 44.39286 | -68.74008 | 11746 ft | 273 kts | 32° |
| 2026-04-25 01:00 | 44.40946 | -68.72792 | 11194 ft | 268 kts | 30° |
| 2026-04-25 01:00 | 44.42532 | -68.71642 | 11009 ft | 248 kts | 30° |
| 2026-04-25 01:01 | 44.44009 | -68.70460 | 10619 ft | 240 kts | 44° |
| 2026-04-25 01:01 | 44.44809 | -68.68547 | 10168 ft | 223 kts | 85° |
| 2026-04-25 01:01 | 44.44986 | -68.66446 | 9766 ft | 218 kts | 93° |
| 2026-04-25 01:01 | 44.45095 | -68.64245 | 9368 ft | 238 kts | 93° |
| 2026-04-25 01:02 | 44.45173 | -68.61818 | 8976 ft | 257 kts | 93° |
| 2026-04-25 01:02 | 44.45225 | -68.59231 | 8574 ft | 271 kts | 93° |
| 2026-04-25 01:02 | 44.45251 | -68.56556 | 8169 ft | 281 kts | 93° |
| 2026-04-25 01:02 | 44.45073 | -68.53805 | 7718 ft | 283 kts | 111° |
| 2026-04-25 01:03 | 44.43952 | -68.51609 | 7301 ft | 273 kts | 146° |
| 2026-04-25 01:03 | 44.42227 | -68.50726 | 6963 ft | 261 kts | 181° |
| 2026-04-25 01:03 | 44.40535 | -68.51377 | 6626 ft | 253 kts | 215° |
| 2026-04-25 01:03 | 44.39462 | -68.53288 | 6340 ft | 248 kts | 247° |
| 2026-04-25 01:04 | 44.38927 | -68.55545 | 5986 ft | 246 kts | 253° |
| 2026-04-25 01:04 | 44.38429 | -68.57822 | 5616 ft | 247 kts | 254° |
| 2026-04-25 01:04 | 44.37918 | -68.60135 | 5241 ft | 248 kts | 254° |
| 2026-04-25 01:04 | 44.37554 | -68.62472 | 4830 ft | 248 kts | 270° |
| 2026-04-25 01:05 | 44.38161 | -68.64699 | 4406 ft | 251 kts | 306° |
| 2026-04-25 01:05 | 44.39613 | -68.65990 | 3995 ft | 257 kts | 340° |
| 2026-04-25 01:05 | 44.41412 | -68.65975 | 3655 ft | 260 kts | 6° |
| 2026-04-25 01:05 | 44.43142 | -68.65445 | 3582 ft | 250 kts | 12° |
| 2026-04-25 01:06 | 44.44779 | -68.64754 | 3547 ft | 241 kts | 14° |
| 2026-04-25 01:06 | 44.46363 | -68.64060 | 3513 ft | 234 kts | 14° |
| 2026-04-25 01:06 | 44.47897 | -68.63390 | 3482 ft | 229 kts | 13° |
| 2026-04-25 01:06 | 44.49413 | -68.62730 | 3453 ft | 226 kts | 13° |
| 2026-04-25 01:07 | 44.50944 | -68.62064 | 3432 ft | 229 kts | 13° |
| 2026-04-25 01:07 | 44.52470 | -68.61400 | 3411 ft | 230 kts | 13° |
| 2026-04-25 01:07 | 44.54020 | -68.60724 | 3390 ft | 232 kts | 13° |
| 2026-04-25 01:07 | 44.55574 | -68.60046 | 3368 ft | 233 kts | 13° |
| 2026-04-25 01:08 | 44.57142 | -68.59361 | 3226 ft | 234 kts | 13° |
| 2026-04-25 01:08 | 44.58704 | -68.58678 | 3032 ft | 231 kts | 14° |
| 2026-04-25 01:08 | 44.60246 | -68.58004 | 2994 ft | 222 kts | 13° |
| 2026-04-25 01:08 | 44.61702 | -68.57907 | 2964 ft | 197 kts | 345° |
| 2026-04-25 01:09 | 44.62937 | -68.58354 | 2972 ft | 169 kts | 340° |
| 2026-04-25 01:09 | 44.63948 | -68.59036 | 2976 ft | 156 kts | 324° |
| 2026-04-25 01:09 | 44.64835 | -68.60031 | 3023 ft | 171 kts | 317° |
| 2026-04-25 01:09 | 44.65747 | -68.61237 | 3012 ft | 181 kts | 315° |
| 2026-04-25 01:10 | 44.66649 | -68.62507 | 3006 ft | 183 kts | 314° |
| 2026-04-25 01:10 | 44.67535 | -68.63775 | 3019 ft | 169 kts | 314° |
| 2026-04-25 01:10 | 44.68312 | -68.64891 | 2998 ft | 157 kts | 314° |
| 2026-04-25 01:10 | 44.69051 | -68.65953 | 2985 ft | 146 kts | 314° |
| 2026-04-25 01:11 | 44.69759 | -68.66970 | 2950 ft | 144 kts | 314° |
| 2026-04-25 01:11 | 44.70429 | -68.67934 | 2746 ft | 134 kts | 314° |
| 2026-04-25 01:11 | 44.71071 | -68.68860 | 2552 ft | 129 kts | 314° |
| 2026-04-25 01:11 | 44.71657 | -68.69707 | 2356 ft | 113 kts | 314° |
| 2026-04-25 01:12 | 44.72196 | -68.70480 | 2194 ft | 106 kts | 315° |
| 2026-04-25 01:12 | 44.72701 | -68.71208 | 2044 ft | 103 kts | 315° |
| 2026-04-25 01:12 | 44.73210 | -68.71936 | 1911 ft | 106 kts | 315° |
| 2026-04-25 01:12 | 44.73724 | -68.72669 | 1842 ft | 101 kts | 315° |
| 2026-04-25 01:13 | 44.74210 | -68.73367 | 1749 ft | 100 kts | 315° |
| 2026-04-25 01:13 | 44.74695 | -68.74065 | 1596 ft | 94 kts | 315° |
| 2026-04-25 01:13 | 44.75145 | -68.74718 | 1468 ft | 93 kts | 315° |
| 2026-04-25 01:13 | 44.75604 | -68.75382 | 1297 ft | 93 kts | 315° |
| 2026-04-25 01:14 | 44.76064 | -68.76041 | 1168 ft | 92 kts | 315° |
| 2026-04-25 01:14 | 44.76512 | -68.76695 | 1029 ft | 92 kts | 315° |
| 2026-04-25 01:14 | 44.76963 | -68.77348 | 870 ft | 91 kts | 315° |
| 2026-04-25 01:14 | 44.77420 | -68.78008 | 764 ft | 95 kts | 316° |
| 2026-04-25 01:15 | 44.77889 | -68.78683 | 615 ft | 96 kts | 316° |
| 2026-04-25 01:15 | 44.78360 | -68.79366 | 515 ft | 96 kts | 315° |
| 2026-04-25 01:15 | 44.78824 | -68.80040 | 395 ft | 99 kts | 315° |
| 2026-04-25 01:15 | 44.79307 | -68.80742 | 270 ft | 100 kts | 316° |
| 2026-04-25 01:16 | 44.79800 | -68.81450 | 176 ft | 99 kts | 316° |
| 2026-04-25 01:16 | 44.80278 | -68.82137 | 157 ft | 94 kts | 315° |
| 2026-04-25 01:16 | 44.80551 | -68.82528 | 164 ft | 21 kts | 320° |
| 2026-04-25 01:16 | 44.80654 | -68.82483 | 165 ft | 12 kts | 46° |
| 2026-04-25 01:17 | 44.80708 | -68.82404 | 165 ft | 12 kts | 47° |
| 2026-04-25 01:17 | 44.80748 | -68.82343 | 165 ft | 4 kts | 46° |
| 2026-04-25 01:17 | 44.80755 | -68.82333 | 165 ft | 0 kts | 46° |
| 2026-04-25 01:17 | 44.80771 | -68.82310 | 165 ft | 6 kts | 46° |
| 2026-04-25 01:18 | 44.80814 | -68.82246 | 164 ft | 11 kts | 52° |
| 2026-04-25 01:18 | 44.80855 | -68.82130 | 163 ft | 15 kts | 48° |
| 2026-04-25 01:18 | 44.80938 | -68.82007 | 161 ft | 18 kts | 46° |
| 2026-04-25 01:18 | 44.81009 | -68.81902 | 160 ft | 10 kts | 46° |
| 2026-04-25 01:19 | 44.81042 | -68.81855 | 160 ft | 4 kts | 46° |
| 2026-04-25 01:19 | 44.81060 | -68.81824 | 159 ft | 5 kts | 69° |
| 2026-04-25 01:19 | 44.81036 | -68.81800 | 158 ft | 3 kts | 226° |
| 2026-04-25 01:19 | 44.81035 | -68.81808 | 158 ft | 0 kts | 265° |